Observation data for Vigo Park on 04/24/2019      Previous  Date  Next       Current Mesonet Observations  Soil Data  Daily Summary Page  Observations in Plain Language
KVP1 240500Z 34004KT 06/05 A3008 RMK A01 T00620051  RH  093%=      5-min Rain = 0
KVP1 240501Z 34004KT 06/05 A3008 RMK A01 T00630052  RH  093%=      5-min Rain = 0
KVP1 240502Z 34004KT 06/05 A3008 RMK A01 T00630052  RH  093%=      5-min Rain = 0
KVP1 240503Z 34005KT 06/05 A3008 RMK A01 T00630052  RH  093%=      5-min Rain = 0
KVP1 240504Z 34005KT 06/05 A3007 RMK A01 T00630052  RH  093%=      5-min Rain = 0
KVP1 240505Z 34005KT 06/05 A3007 RMK A01 T00630053  RH  093%=      5-min Rain = 0
KVP1 240506Z 34005KT 06/05 A3007 RMK A01 T00620052  RH  093%=      5-min Rain = 0
KVP1 240507Z 34006KT 06/05 A3007 RMK A01 T00620053  RH  094%=      5-min Rain = 0
KVP1 240508Z 34006KT 06/05 A3007 RMK A01 T00620052  RH  094%=      5-min Rain = 0
KVP1 240509Z 34007KT 06/05 A3007 RMK A01 T00610053  RH  094%=      5-min Rain = 0
KVP1 240510Z 33007KT 06/05 A3007 RMK A01 T00610053  RH  095%=      5-min Rain = 0
KVP1 240511Z 33007KT 06/05 A3007 RMK A01 T00620054  RH  095%=      5-min Rain = 0
KVP1 240512Z 34007KT 06/06 A3007 RMK A01 T00620055  RH  095%=      5-min Rain = 0
KVP1 240513Z 34007KT 06/06 A3007 RMK A01 T00630056  RH  095%=      5-min Rain = 0
KVP1 240514Z 34007KT 06/06 A3006 RMK A01 T00640058  RH  096%=      5-min Rain = 0
KVP1 240515Z 34007KT 07/06 A3006 RMK A01 T00660059  RH  096%=      5-min Rain = 0
KVP1 240516Z 34007KT 07/06 A3006 RMK A01 T00670060  RH  096%=      5-min Rain = 0
KVP1 240517Z 34007KT 07/06 A3006 RMK A01 T00680061  RH  095%=      5-min Rain = 0
KVP1 240518Z 34007KT 07/06 A3006 RMK A01 T00690061  RH  095%=      5-min Rain = 0
KVP1 240519Z 34008KT 07/06 A3005 RMK A01 T00690062  RH  095%=      5-min Rain = 0
KVP1 240520Z 34008KT 07/06 A3005 RMK A01 T00700062  RH  095%=      5-min Rain = 0
KVP1 240521Z 34008KT 07/06 A3005 RMK A01 T00700062  RH  094%=      5-min Rain = 0
KVP1 240522Z 34008KT 07/06 A3005 RMK A01 T00710062  RH  094%=      5-min Rain = 0
KVP1 240523Z 34007KT 07/06 A3005 RMK A01 T00710062  RH  094%=      5-min Rain = 0
KVP1 240524Z 34008KT 07/06 A3004 RMK A01 T00720062  RH  093%=      5-min Rain = 0
KVP1 240525Z 34007KT 07/06 A3004 RMK A01 T00720061  RH  093%=      5-min Rain = 0
KVP1 240526Z 34008KT 07/06 A3004 RMK A01 T00720061  RH  093%=      5-min Rain = 0
KVP1 240527Z 34008KT 07/06 A3004 RMK A01 T00720061  RH  092%=      5-min Rain = 0
KVP1 240528Z 34008KT 07/06 A3004 RMK A01 T00720060  RH  092%=      5-min Rain = 0
KVP1 240529Z 34008KT 07/06 A3005 RMK A01 T00720060  RH  092%=      5-min Rain = 0
KVP1 240530Z 34008KT 07/06 A3004 RMK A01 T00720059  RH  091%=      5-min Rain = 0
KVP1 240531Z 34009KT 07/06 A3004 RMK A01 T00730059  RH  091%=      5-min Rain = 0
KVP1 240532Z 34009KT 07/06 A3004 RMK A01 T00730058  RH  091%=      5-min Rain = 0
KVP1 240533Z 34008KT 07/06 A3004 RMK A01 T00730058  RH  090%=      5-min Rain = 0
KVP1 240534Z 34008KT 07/06 A3004 RMK A01 T00730057  RH  090%=      5-min Rain = 0
KVP1 240535Z 34008KT 07/06 A3004 RMK A01 T00730057  RH  090%=      5-min Rain = 0
KVP1 240536Z 34008KT 07/06 A3004 RMK A01 T00720057  RH  090%=      5-min Rain = 0
KVP1 240537Z 34008KT 07/06 A3004 RMK A01 T00720056  RH  090%=      5-min Rain = 0
KVP1 240538Z 34008KT 07/06 A3004 RMK A01 T00710056  RH  090%=      5-min Rain = 0
KVP1 240539Z 34008KT 07/06 A3003 RMK A01 T00700056  RH  091%=      5-min Rain = 0
KVP1 240540Z 34008KT 07/06 A3003 RMK A01 T00690055  RH  091%=      5-min Rain = 0
KVP1 240541Z 34008KT 07/06 A3003 RMK A01 T00690056  RH  091%=      5-min Rain = 0
KVP1 240542Z 34008KT 07/06 A3003 RMK A01 T00690056  RH  091%=      5-min Rain = 0
KVP1 240543Z 34008KT 07/06 A3003 RMK A01 T00680056  RH  092%=      5-min Rain = 0
KVP1 240544Z 33008KT 07/06 A3003 RMK A01 T00680056  RH  092%=      5-min Rain = 0
KVP1 240545Z 33008KT 07/06 A3003 RMK A01 T00680057  RH  092%=      5-min Rain = 0
KVP1 240546Z 34008KT 07/06 A3003 RMK A01 T00680057  RH  093%=      5-min Rain = 0
KVP1 240547Z 33008KT 07/06 A3003 RMK A01 T00680057  RH  093%=      5-min Rain = 0
KVP1 240548Z 33009KT 07/06 A3003 RMK A01 T00680057  RH  093%=      5-min Rain = 0
KVP1 240549Z 33008KT 07/06 A3003 RMK A01 T00680057  RH  093%=      5-min Rain = 0
KVP1 240550Z 33008KT 07/06 A3003 RMK A01 T00680057  RH  093%=      5-min Rain = 0
KVP1 240551Z 33009KT 07/06 A3003 RMK A01 T00680057  RH  093%=      5-min Rain = 0
KVP1 240552Z 33009KT 07/06 A3003 RMK A01 T00680057  RH  093%=      5-min Rain = 0
KVP1 240553Z 33009KT 07/06 A3003 RMK A01 T00680057  RH  093%=      5-min Rain = 0
KVP1 240554Z 33010KT 07/06 A3003 RMK A01 T00670057  RH  093%=      5-min Rain = 0
KVP1 240555Z 33010KT 07/06 A3003 RMK A01 T00670057  RH  093%=      5-min Rain = 0
KVP1 240556Z 34009KT 07/06 A3003 RMK A01 T00670057  RH  093%=      5-min Rain = 0
KVP1 240557Z 33009KT 07/06 A3003 RMK A01 T00680057  RH  093%=      5-min Rain = 0
KVP1 240558Z 34009KT 07/06 A3003 RMK A01 T00680056  RH  093%=      5-min Rain = 0
KVP1 240559Z 34010KT 07/06 A3003 RMK A01 T00680056  RH  092%=      5-min Rain = 0
KVP1 240600Z 34009KT 07/06 A3003 RMK A01 T00680056  RH  092%=      5-min Rain = 0
KVP1 240601Z 33009KT 07/06 A3003 RMK A01 T00680055  RH  092%=      5-min Rain = 0
KVP1 240602Z 33009KT 07/06 A3003 RMK A01 T00680055  RH  091%=      5-min Rain = 0
KVP1 240603Z 34009KT 07/06 A3004 RMK A01 T00680055  RH  091%=      5-min Rain = 0
KVP1 240604Z 34008KT 07/06 A3004 RMK A01 T00680055  RH  091%=      5-min Rain = 0
KVP1 240605Z 34008KT 07/05 A3004 RMK A01 T00680054  RH  091%=      5-min Rain = 0
KVP1 240606Z 34008KT 07/05 A3004 RMK A01 T00680054  RH  091%=      5-min Rain = 0
KVP1 240607Z 34007KT 07/05 A3004 RMK A01 T00680054  RH  091%=      5-min Rain = 0
KVP1 240608Z 33007KT 07/05 A3004 RMK A01 T00680054  RH  091%=      5-min Rain = 0
KVP1 240609Z 33008KT 07/05 A3004 RMK A01 T00680054  RH  091%=      5-min Rain = 0
KVP1 240610Z 33007KT 07/05 A3004 RMK A01 T00680053  RH  091%=      5-min Rain = 0
KVP1 240611Z 33008KT 07/05 A3004 RMK A01 T00680054  RH  091%=      5-min Rain = 0
KVP1 240612Z 33007KT 07/05 A3004 RMK A01 T00680054  RH  091%=      5-min Rain = 0
KVP1 240613Z 34008KT 07/05 A3004 RMK A01 T00680054  RH  091%=      5-min Rain = 0
KVP1 240614Z 34008KT 07/05 A3004 RMK A01 T00670053  RH  091%=      5-min Rain = 0
KVP1 240615Z 34008KT 07/05 A3003 RMK A01 T00670053  RH  091%=      5-min Rain = 0
KVP1 240616Z 34008KT 07/05 A3003 RMK A01 T00670053  RH  091%=      5-min Rain = 0
KVP1 240617Z 34008KT 07/05 A3003 RMK A01 T00660053  RH  091%=      5-min Rain = 0
KVP1 240618Z 34008KT 07/05 A3003 RMK A01 T00660054  RH  092%=      5-min Rain = 0
KVP1 240619Z 33007KT 07/05 A3003 RMK A01 T00660053  RH  092%=      5-min Rain = 0
KVP1 240620Z 33008KT 07/05 A3003 RMK A01 T00660053  RH  092%=      5-min Rain = 0
KVP1 240621Z 33008KT 07/05 A3003 RMK A01 T00660053  RH  092%=      5-min Rain = 0
KVP1 240622Z 33008KT 07/05 A3003 RMK A01 T00660053  RH  092%=      5-min Rain = 0
KVP1 240623Z 33008KT 07/05 A3003 RMK A01 T00660053  RH  092%=      5-min Rain = 0
KVP1 240624Z 33008KT 07/05 A3003 RMK A01 T00660053  RH  091%=      5-min Rain = 0
KVP1 240625Z 33008KT 07/05 A3003 RMK A01 T00660053  RH  091%=      5-min Rain = 0
KVP1 240626Z 33008KT 07/05 A3003 RMK A01 T00660052  RH  091%=      5-min Rain = 0
KVP1 240627Z 33008KT 07/05 A3003 RMK A01 T00650052  RH  091%=      5-min Rain = 0
KVP1 240628Z 33008KT 07/05 A3003 RMK A01 T00650052  RH  091%=      5-min Rain = 0
KVP1 240629Z 33008KT 07/05 A3003 RMK A01 T00650052  RH  091%=      5-min Rain = 0
KVP1 240630Z 34008KT 07/05 A3003 RMK A01 T00650052  RH  091%=      5-min Rain = 0
KVP1 240631Z 33008KT 06/05 A3003 RMK A01 T00640051  RH  091%=      5-min Rain = 0
KVP1 240632Z 33008KT 06/05 A3003 RMK A01 T00640051  RH  092%=      5-min Rain = 0
KVP1 240633Z 33007KT 06/05 A3003 RMK A01 T00640051  RH  092%=      5-min Rain = 0
KVP1 240634Z 33007KT 06/05 A3003 RMK A01 T00640051  RH  091%=      5-min Rain = 0
KVP1 240635Z 33007KT 06/05 A3003 RMK A01 T00630050  RH  091%=      5-min Rain = 0
KVP1 240636Z 33008KT 06/05 A3003 RMK A01 T00630050  RH  091%=      5-min Rain = 0
KVP1 240637Z 34007KT 06/05 A3002 RMK A01 T00630050  RH  091%=      5-min Rain = 0
KVP1 240638Z 34008KT 06/05 A3002 RMK A01 T00620050  RH  092%=      5-min Rain = 0
KVP1 240639Z 34008KT 06/05 A3002 RMK A01 T00620049  RH  092%=      5-min Rain = 0
KVP1 240640Z 34008KT 06/05 A3002 RMK A01 T00620049  RH  092%=      5-min Rain = 0
KVP1 240641Z 34007KT 06/05 A3002 RMK A01 T00620049  RH  092%=      5-min Rain = 0
KVP1 240642Z 34007KT 06/05 A3002 RMK A01 T00620049  RH  091%=      5-min Rain = 0
KVP1 240643Z 34006KT 06/05 A3002 RMK A01 T00620049  RH  091%=      5-min Rain = 0
KVP1 240644Z 34006KT 06/05 A3002 RMK A01 T00620048  RH  091%=      5-min Rain = 0
KVP1 240645Z 34006KT 06/05 A3002 RMK A01 T00620048  RH  091%=      5-min Rain = 0
KVP1 240646Z 34005KT 06/05 A3002 RMK A01 T00620048  RH  091%=      5-min Rain = 0
KVP1 240647Z 34005KT 06/05 A3002 RMK A01 T00620048  RH  091%=      5-min Rain = 0
KVP1 240648Z 34005KT 06/05 A3002 RMK A01 T00620047  RH  091%=      5-min Rain = 0
KVP1 240649Z 34004KT 06/05 A3002 RMK A01 T00610047  RH  091%=      5-min Rain = 0
KVP1 240650Z 34005KT 06/05 A3002 RMK A01 T00610047  RH  091%=      5-min Rain = 0
KVP1 240651Z 34005KT 06/05 A3002 RMK A01 T00610047  RH  090%=      5-min Rain = 0
KVP1 240652Z 34006KT 06/05 A3002 RMK A01 T00610047  RH  090%=      5-min Rain = 0
KVP1 240653Z 34006KT 06/05 A3002 RMK A01 T00610047  RH  090%=      5-min Rain = 0
KVP1 240654Z 33006KT 06/05 A3002 RMK A01 T00610046  RH  090%=      5-min Rain = 0
KVP1 240655Z 33007KT 06/05 A3002 RMK A01 T00600045  RH  090%=      5-min Rain = 0
KVP1 240656Z 33007KT 06/05 A3002 RMK A01 T00600046  RH  091%=      5-min Rain = 0
KVP1 240657Z 33007KT 06/05 A3002 RMK A01 T00590045  RH  091%=      5-min Rain = 0
KVP1 240658Z 33007KT 06/05 A3001 RMK A01 T00590045  RH  091%=      5-min Rain = 0
KVP1 240659Z 33008KT 06/05 A3001 RMK A01 T00580045  RH  091%=      5-min Rain = 0
KVP1 240700Z 33008KT 06/05 A3001 RMK A01 T00580045  RH  092%=      5-min Rain = 0
KVP1 240701Z 33009KT 06/05 A3001 RMK A01 T00570045  RH  092%=      5-min Rain = 0
KVP1 240702Z 33009KT 06/05 A3001 RMK A01 T00570045  RH  092%=      5-min Rain = 0
KVP1 240703Z 33009KT 06/05 A3001 RMK A01 T00570045  RH  092%=      5-min Rain = 0
KVP1 240704Z 33009KT 06/05 A3001 RMK A01 T00570045  RH  092%=      5-min Rain = 0
KVP1 240705Z 33008KT 06/05 A3001 RMK A01 T00580045  RH  091%=      5-min Rain = 0
KVP1 240706Z 33008KT 06/04 A3001 RMK A01 T00570044  RH  091%=      5-min Rain = 0
KVP1 240707Z 34008KT 06/04 A3001 RMK A01 T00570044  RH  091%=      5-min Rain = 0
KVP1 240708Z 33008KT 06/04 A3001 RMK A01 T00580044  RH  091%=      5-min Rain = 0
KVP1 240709Z 33008KT 06/04 A3001 RMK A01 T00580044  RH  091%=      5-min Rain = 0
KVP1 240710Z 33009KT 06/04 A3001 RMK A01 T00580044  RH  091%=      5-min Rain = 0
KVP1 240711Z 33008KT 06/04 A3001 RMK A01 T00580044  RH  091%=      5-min Rain = 0
KVP1 240712Z 33008KT 06/04 A3001 RMK A01 T00580044  RH  091%=      5-min Rain = 0
KVP1 240713Z 33009KT 06/04 A3001 RMK A01 T00580044  RH  091%=      5-min Rain = 0
KVP1 240714Z 33008KT 06/04 A3001 RMK A01 T00570044  RH  091%=      5-min Rain = 0
KVP1 240715Z 33008KT 06/04 A3001 RMK A01 T00570043  RH  091%=      5-min Rain = 0
KVP1 240716Z 33008KT 06/04 A3001 RMK A01 T00570043  RH  091%=      5-min Rain = 0
KVP1 240717Z 33008KT 06/04 A3001 RMK A01 T00570044  RH  091%=      5-min Rain = 0
KVP1 240718Z 33008KT 06/04 A3001 RMK A01 T00570044  RH  091%=      5-min Rain = 0
KVP1 240719Z 33008KT 06/04 A3001 RMK A01 T00560043  RH  091%=      5-min Rain = 0
KVP1 240720Z 34008KT 06/04 A3001 RMK A01 T00560043  RH  092%=      5-min Rain = 0
KVP1 240721Z 34008KT 06/04 A3001 RMK A01 T00560043  RH  092%=      5-min Rain = 0
KVP1 240722Z 34008KT 06/04 A3001 RMK A01 T00560043  RH  092%=      5-min Rain = 0
KVP1 240723Z 34007KT 06/04 A30 RMK A01 T00560043  RH  092%=      5-min Rain = 0
KVP1 240724Z 34007KT 06/04 A30 RMK A01 T00560043  RH  092%=      5-min Rain = 0
KVP1 240725Z 34007KT 06/04 A30 RMK A01 T00560043  RH  092%=      5-min Rain = 0
KVP1 240726Z 34007KT 06/04 A3001 RMK A01 T00560043  RH  092%=      5-min Rain = 0
KVP1 240727Z 34007KT 06/04 A3001 RMK A01 T00550043  RH  092%=      5-min Rain = 0
KVP1 240728Z 34007KT 06/04 A3001 RMK A01 T00550043  RH  092%=      5-min Rain = 0
KVP1 240729Z 34007KT 06/04 A3001 RMK A01 T00550043  RH  092%=      5-min Rain = 0
KVP1 240730Z 34007KT 05/04 A3001 RMK A01 T00540043  RH  092%=      5-min Rain = 0
KVP1 240731Z 34007KT 05/04 A3001 RMK A01 T00540043  RH  092%=      5-min Rain = 0
KVP1 240732Z 34006KT 05/04 A3001 RMK A01 T00540043  RH  093%=      5-min Rain = 0
KVP1 240733Z 34007KT 05/04 A30 RMK A01 T00540043  RH  092%=      5-min Rain = 0
KVP1 240734Z 35007KT 06/04 A30 RMK A01 T00560044  RH  092%=      5-min Rain = 0
KVP1 240735Z 34006KT 06/04 A3001 RMK A01 T00560043  RH  091%=      5-min Rain = 0
KVP1 240736Z 34006KT 06/04 A3001 RMK A01 T00570043  RH  091%=      5-min Rain = 0
KVP1 240737Z 34005KT 06/04 A3001 RMK A01 T00570042  RH  091%=      5-min Rain = 0
KVP1 240738Z 34005KT 06/04 A3001 RMK A01 T00570042  RH  091%=      5-min Rain = 0
KVP1 240739Z 34005KT 06/04 A3001 RMK A01 T00560042  RH  091%=      5-min Rain = 0
KVP1 240740Z 34005KT 06/04 A3001 RMK A01 T00550041  RH  091%=      5-min Rain = 0
KVP1 240741Z 34005KT 05/04 A3001 RMK A01 T00540041  RH  091%=      5-min Rain = 0
KVP1 240742Z 34005KT 05/04 A3001 RMK A01 T00540041  RH  092%=      5-min Rain = 0
KVP1 240743Z 34005KT 05/04 A3001 RMK A01 T00530041  RH  092%=      5-min Rain = 0
KVP1 240744Z 34005KT 05/04 A3001 RMK A01 T00520040  RH  092%=      5-min Rain = 0
KVP1 240745Z 34005KT 05/04 A3001 RMK A01 T00510040  RH  092%=      5-min Rain = 0
KVP1 240746Z 34005KT 05/04 A3001 RMK A01 T00510039  RH  092%=      5-min Rain = 0
KVP1 240747Z 33004KT 05/04 A3001 RMK A01 T00500040  RH  093%=      5-min Rain = 0
KVP1 240748Z 33004KT 05/04 A3001 RMK A01 T00500040  RH  093%=      5-min Rain = 0
KVP1 240749Z 33004KT 05/04 A3001 RMK A01 T00500040  RH  093%=      5-min Rain = 0
KVP1 240750Z 33003KT 05/04 A3001 RMK A01 T00500040  RH  093%=      5-min Rain = 0
KVP1 240751Z 33003KT 05/04 A3001 RMK A01 T00500040  RH  093%=      5-min Rain = 0
KVP1 240752Z 33003KT 05/04 A3001 RMK A01 T00500040  RH  093%=      5-min Rain = 0
KVP1 240753Z 33002KT 05/04 A3001 RMK A01 T00500040  RH  093%=      5-min Rain = 0
KVP1 240754Z 32002KT 05/04 A3002 RMK A01 T00490040  RH  093%=      5-min Rain = 0
KVP1 240755Z 32003KT 05/04 A3002 RMK A01 T00490040  RH  094%=      5-min Rain = 0
KVP1 240756Z 32003KT 05/04 A3002 RMK A01 T00490040  RH  094%=      5-min Rain = 0
KVP1 240757Z 32003KT 05/04 A3002 RMK A01 T00490040  RH  094%=      5-min Rain = 0
KVP1 240758Z 33003KT 05/04 A3002 RMK A01 T00490040  RH  094%=      5-min Rain = 0
KVP1 240759Z 33003KT 05/04 A3002 RMK A01 T00500040  RH  094%=      5-min Rain = 0
KVP1 240800Z 33004KT 05/04 A3001 RMK A01 T00490040  RH  094%=      5-min Rain = 0
KVP1 240801Z 33004KT 05/04 A3001 RMK A01 T00490040  RH  094%=      5-min Rain = 0
KVP1 240802Z 33004KT 05/04 A3001 RMK A01 T00500040  RH  094%=      5-min Rain = 0
KVP1 240803Z 33004KT 05/04 A3001 RMK A01 T00500040  RH  093%=      5-min Rain = 0
KVP1 240804Z 33004KT 05/04 A3001 RMK A01 T00490040  RH  094%=      5-min Rain = 0
KVP1 240805Z 33004KT 05/04 A3001 RMK A01 T00490039  RH  093%=      5-min Rain = 0
KVP1 240806Z 33005KT 05/04 A3001 RMK A01 T00490039  RH  093%=      5-min Rain = 0
KVP1 240807Z 33005KT 05/04 A3001 RMK A01 T00490039  RH  093%=      5-min Rain = 0
KVP1 240808Z 34005KT 05/04 A3001 RMK A01 T00490039  RH  093%=      5-min Rain = 0
KVP1 240809Z 33005KT 05/04 A3001 RMK A01 T00490039  RH  093%=      5-min Rain = 0
KVP1 240810Z 33005KT 05/04 A3001 RMK A01 T00480038  RH  093%=      5-min Rain = 0
KVP1 240811Z 33005KT 05/04 A3001 RMK A01 T00480038  RH  094%=      5-min Rain = 0
KVP1 240812Z 33005KT 05/04 A3001 RMK A01 T00470038  RH  094%=      5-min Rain = 0
KVP1 240813Z 33005KT 05/04 A3001 RMK A01 T00470038  RH  094%=      5-min Rain = 0
KVP1 240814Z 33005KT 05/04 A3001 RMK A01 T00470038  RH  094%=      5-min Rain = 0
KVP1 240815Z 33005KT 05/04 A3001 RMK A01 T00460038  RH  094%=      5-min Rain = 0
KVP1 240816Z 33005KT 05/04 A3001 RMK A01 T00460038  RH  094%=      5-min Rain = 0
KVP1 240817Z 33005KT 05/04 A3001 RMK A01 T00460038  RH  094%=      5-min Rain = 0
KVP1 240818Z 33005KT 05/04 A3001 RMK A01 T00450037  RH  094%=      5-min Rain = 0
KVP1 240819Z 33005KT 05/04 A3001 RMK A01 T00450036  RH  094%=      5-min Rain = 0
KVP1 240820Z 33004KT 04/04 A3001 RMK A01 T00440036  RH  094%=      5-min Rain = 0
KVP1 240821Z 33004KT 04/04 A3001 RMK A01 T00440036  RH  095%=      5-min Rain = 0
KVP1 240822Z 33004KT 04/04 A3001 RMK A01 T00440036  RH  095%=      5-min Rain = 0
KVP1 240823Z 33004KT 04/04 A3001 RMK A01 T00440037  RH  095%=      5-min Rain = 0
KVP1 240824Z 33004KT 04/04 A3001 RMK A01 T00440037  RH  095%=      5-min Rain = 0
KVP1 240825Z 32004KT 04/04 A3001 RMK A01 T00440037  RH  095%=      5-min Rain = 0
KVP1 240826Z 32003KT 05/04 A3001 RMK A01 T00450038  RH  095%=      5-min Rain = 0
KVP1 240827Z 32003KT 05/04 A3001 RMK A01 T00450039  RH  095%=      5-min Rain = 0
KVP1 240828Z 32003KT 05/04 A3001 RMK A01 T00460039  RH  095%=      5-min Rain = 0
KVP1 240829Z 32003KT 05/04 A3001 RMK A01 T00470039  RH  095%=      5-min Rain = 0
KVP1 240830Z 32003KT 05/04 A3001 RMK A01 T00470039  RH  095%=      5-min Rain = 0
KVP1 240831Z 32003KT 05/04 A3001 RMK A01 T00480040  RH  094%=      5-min Rain = 0
KVP1 240832Z 32003KT 05/04 A3001 RMK A01 T00480039  RH  094%=      5-min Rain = 0
KVP1 240833Z 32003KT 05/04 A3001 RMK A01 T00490039  RH  094%=      5-min Rain = 0
KVP1 240834Z 32003KT 05/04 A3001 RMK A01 T00490039  RH  094%=      5-min Rain = 0
KVP1 240835Z 32003KT 05/04 A3001 RMK A01 T00490039  RH  093%=      5-min Rain = 0
KVP1 240836Z 32003KT 05/04 A3001 RMK A01 T00490039  RH  093%=      5-min Rain = 0
KVP1 240837Z 32002KT 05/04 A3001 RMK A01 T00500039  RH  093%=      5-min Rain = 0
KVP1 240838Z 32002KT 05/04 A3002 RMK A01 T00500040  RH  093%=      5-min Rain = 0
KVP1 240839Z 32002KT 05/04 A3002 RMK A01 T00500039  RH  093%=      5-min Rain = 0
KVP1 240840Z 31002KT 05/04 A3002 RMK A01 T00500039  RH  093%=      5-min Rain = 0
KVP1 240841Z 30002KT 05/04 A3002 RMK A01 T00500039  RH  093%=      5-min Rain = 0
KVP1 240842Z 30002KT 05/04 A3002 RMK A01 T00500039  RH  092%=      5-min Rain = 0
KVP1 240843Z 28001KT 05/04 A3002 RMK A01 T00490037  RH  092%=      5-min Rain = 0
KVP1 240844Z 24001KT 05/03 A3001 RMK A01 T00450029  RH  090%=      5-min Rain = 0
KVP1 240845Z 20002KT 04/02 A3001 RMK A01 T00390023  RH  089%=      5-min Rain = 0
KVP1 240846Z 18003KT 04/02 A3001 RMK A01 T00360023  RH  091%=      5-min Rain = 0
KVP1 240847Z 17003KT 04/03 A3001 RMK A01 T00350025  RH  094%=      5-min Rain = 0
KVP1 240848Z 16003KT 03/03 A3001 RMK A01 T00340026  RH  094%=      5-min Rain = 0
KVP1 240849Z 17003KT 03/03 A3001 RMK A01 T00330027  RH  096%=      5-min Rain = 0
KVP1 240850Z 18002KT 04/03 A3001 RMK A01 T00350031  RH  097%=      5-min Rain = 0
KVP1 240851Z 17003KT 04/03 A3001 RMK A01 T00370033  RH  098%=      5-min Rain = 0
KVP1 240852Z 17004KT 04/03 A3001 RMK A01 T00360032  RH  097%=      5-min Rain = 0
KVP1 240853Z 17005KT 04/03 A3001 RMK A01 T00350031  RH  097%=      5-min Rain = 0
KVP1 240854Z 16006KT 04/03 A3002 RMK A01 T00350031  RH  097%=      5-min Rain = 0
KVP1 240855Z 16007KT 04/03 A3002 RMK A01 T00350031  RH  097%=      5-min Rain = 0
KVP1 240856Z 16007KT 04/03 A3002 RMK A01 T00350032  RH  098%=      5-min Rain = 0
KVP1 240857Z 16007KT 04/04 A3001 RMK A01 T00370035  RH  099%=      5-min Rain = 0
KVP1 240858Z 16007KT 04/04 A3001 RMK A01 T00390037  RH  099%=      5-min Rain = 0
KVP1 240859Z 16006KT 04/04 A3001 RMK A01 T00390038  RH  099%=      5-min Rain = 0
KVP1 240900Z 17006KT 04/04 A3001 RMK A01 T00400039  RH  099%=      5-min Rain = 0
KVP1 240901Z 17006KT 04/04 A3001 RMK A01 T00410040  RH  099%=      5-min Rain = 0
KVP1 240902Z 17006KT 04/04 A3001 RMK A01 T00410040  RH  099%=      5-min Rain = 0
KVP1 240903Z 17005KT 04/04 A3001 RMK A01 T00410040  RH  099%=      5-min Rain = 0
KVP1 240904Z 17005KT 04/04 A3001 RMK A01 T00410039  RH  099%=      5-min Rain = 0
KVP1 240905Z 17006KT 04/04 A3001 RMK A01 T00410039  RH  098%=      5-min Rain = 0
KVP1 240906Z 17006KT 04/04 A3001 RMK A01 T00410038  RH  098%=      5-min Rain = 0
KVP1 240907Z 16006KT 04/04 A3001 RMK A01 T00410038  RH  098%=      5-min Rain = 0
KVP1 240908Z 16005KT 04/04 A3001 RMK A01 T00400038  RH  098%=      5-min Rain = 0
KVP1 240909Z 16005KT 04/04 A3001 RMK A01 T00400038  RH  098%=      5-min Rain = 0
KVP1 240910Z 17004KT 04/04 A3001 RMK A01 T00400037  RH  098%=      5-min Rain = 0
KVP1 240911Z 17004KT 04/04 A3001 RMK A01 T00400038  RH  098%=      5-min Rain = 0
KVP1 240912Z 17003KT 04/04 A3001 RMK A01 T00400038  RH  098%=      5-min Rain = 0
KVP1 240913Z 17003KT 04/04 A3001 RMK A01 T00400038  RH  098%=      5-min Rain = 0
KVP1 240914Z 17002KT 04/04 A3001 RMK A01 T00400038  RH  098%=      5-min Rain = 0
KVP1 240915Z 17002KT 04/04 A30 RMK A01 T00400038  RH  098%=      5-min Rain = 0
KVP1 240916Z 17002KT 04/04 A30 RMK A01 T00400038  RH  098%=      5-min Rain = 0
KVP1 240917Z 17001KT 04/04 A30 RMK A01 T00400037  RH  098%=      5-min Rain = 0
KVP1 240918Z 18001KT 04/04 A30 RMK A01 T00390036  RH  098%=      5-min Rain = 0
KVP1 240919Z 18001KT 04/04 A30 RMK A01 T00390036  RH  098%=      5-min Rain = 0
KVP1 240920Z 18001KT 04/04 A30 RMK A01 T00390036  RH  098%=      5-min Rain = 0
KVP1 240921Z 18002KT 04/04 A30 RMK A01 T00390036  RH  098%=      5-min Rain = 0
KVP1 240922Z 18002KT 04/04 A30 RMK A01 T00390036  RH  098%=      5-min Rain = 0
KVP1 240923Z 16002KT 04/04 A30 RMK A01 T00390036  RH  098%=      5-min Rain = 0
KVP1 240924Z 15002KT 04/04 A30 RMK A01 T00390036  RH  098%=      5-min Rain = 0
KVP1 240925Z 15003KT 04/04 A30 RMK A01 T00390036  RH  098%=      5-min Rain = 0
KVP1 240926Z 16003KT 04/04 A30 RMK A01 T00390037  RH  099%=      5-min Rain = 0
KVP1 240927Z 16003KT 04/04 A30 RMK A01 T00390038  RH  099%=      5-min Rain = 0
KVP1 240928Z 17003KT 04/04 A30 RMK A01 T00390038  RH  099%=      5-min Rain = 0
KVP1 240929Z 17003KT 04/04 A30 RMK A01 T00390038  RH  099%=      5-min Rain = 0
KVP1 240930Z 17003KT 04/04 A30 RMK A01 T00390038  RH  099%=      5-min Rain = 0
KVP1 240931Z 17003KT 04/04 A30 RMK A01 T00390038  RH  099%=      5-min Rain = 0
KVP1 240932Z 17003KT 04/04 A30 RMK A01 T00390038  RH  099%=      5-min Rain = 0
KVP1 240933Z 18003KT 04/04 A30 RMK A01 T00390038  RH  099%=      5-min Rain = 0
KVP1 240934Z 18002KT 04/04 A30 RMK A01 T00390038  RH  099%=      5-min Rain = 0
KVP1 240935Z 18002KT 04/04 A30 RMK A01 T00400039  RH  099%=      5-min Rain = 0
KVP1 240936Z 18002KT 04/04 A30 RMK A01 T00390038  RH  099%=      5-min Rain = 0
KVP1 240937Z 18002KT 04/04 A30 RMK A01 T00400039  RH  100%=      5-min Rain = 0
KVP1 240938Z 18002KT 04/04 A30 RMK A01 T00400039  RH  100%=      5-min Rain = 0
KVP1 240939Z 18001KT 04/04 A30 RMK A01 T00400039  RH  100%=      5-min Rain = 0
KVP1 240940Z 19001KT 04/04 A30 RMK A01 T00400039  RH  100%=      5-min Rain = 0
KVP1 240941Z 19001KT 04/04 A30 RMK A01 T00400039  RH  100%=      5-min Rain = 0
KVP1 240942Z 20001KT 04/04 A30 RMK A01 T00400039  RH  100%=      5-min Rain = 0
KVP1 240943Z 20001KT 04/04 A30 RMK A01 T00400040  RH  100%=      5-min Rain = 0
KVP1 240944Z 20001KT 04/04 A30 RMK A01 T00400040  RH  100%=      5-min Rain = 0
KVP1 240945Z 20002KT 04/04 A30 RMK A01 T00400040  RH  100%=      5-min Rain = 0
KVP1 240946Z 18002KT 04/04 A30 RMK A01 T00400039  RH  100%=      5-min Rain = 0
KVP1 240947Z 17003KT 04/04 A30 RMK A01 T00390039  RH  100%=      5-min Rain = 0
KVP1 240948Z 16003KT 04/04 A30 RMK A01 T00390038  RH  100%=      5-min Rain = 0
KVP1 240949Z 16003KT 04/04 A30 RMK A01 T00390038  RH  100%=      5-min Rain = 0
KVP1 240950Z 16003KT 04/04 A30 RMK A01 T00390038  RH  100%=      5-min Rain = 0
KVP1 240951Z 16003KT 04/04 A30 RMK A01 T00390039  RH  100%=      5-min Rain = 0
KVP1 240952Z 16003KT 04/04 A30 RMK A01 T00390039  RH  100%=      5-min Rain = 0
KVP1 240953Z 17003KT 04/04 A30 RMK A01 T00390039  RH  100%=      5-min Rain = 0
KVP1 240954Z 17003KT 04/04 A30 RMK A01 T00390039  RH  100%=      5-min Rain = 0
KVP1 240955Z 17003KT 04/04 A30 RMK A01 T00390039  RH  100%=      5-min Rain = 0
KVP1 240956Z 17004KT 04/04 A30 RMK A01 T00390039  RH  100%=      5-min Rain = 0
KVP1 240957Z 17004KT 04/04 A30 RMK A01 T00390039  RH  100%=      5-min Rain = 0
KVP1 240958Z 17004KT 04/04 A30 RMK A01 T00380038  RH  100%=      5-min Rain = 0
KVP1 240959Z 17005KT 04/04 A30 RMK A01 T00380038  RH  100%=      5-min Rain = 0
KVP1 241000Z 18005KT 04/04 A30 RMK A01 T00360036  RH  100%=      5-min Rain = 0
KVP1 241001Z 18005KT 04/04 A30 RMK A01 T00360036  RH  100%=      5-min Rain = 0
KVP1 241002Z 18005KT 04/04 A30 RMK A01 T00360035  RH  100%=      5-min Rain = 0
KVP1 241003Z 18005KT 04/04 A3001 RMK A01 T00360035  RH  100%=      5-min Rain = 0
KVP1 241004Z 18006KT 04/04 A3001 RMK A01 T00350035  RH  100%=      5-min Rain = 0
KVP1 241005Z 18006KT 03/03 A3001 RMK A01 T00340033  RH  099%=      5-min Rain = 0
KVP1 241006Z 18006KT 03/03 A3001 RMK A01 T00330032  RH  099%=      5-min Rain = 0
KVP1 241007Z 19007KT 03/03 A3001 RMK A01 T00330033  RH  099%=      5-min Rain = 0
KVP1 241008Z 19007KT 03/03 A3001 RMK A01 T00340033  RH  100%=      5-min Rain = 0
KVP1 241009Z 19008KT 03/03 A3001 RMK A01 T00340034  RH  100%=      5-min Rain = 0
KVP1 241010Z 19008KT 04/04 A3001 RMK A01 T00350035  RH  100%=      5-min Rain = 0
KVP1 241011Z 18008KT 04/04 A3001 RMK A01 T00360036  RH  100%=      5-min Rain = 0
KVP1 241012Z 18007KT 04/04 A3001 RMK A01 T00370037  RH  100%=      5-min Rain = 0
KVP1 241013Z 18007KT 04/04 A3001 RMK A01 T00380038  RH  100%=      5-min Rain = 0
KVP1 241014Z 19007KT 04/04 A3001 RMK A01 T00400040  RH  100%=      5-min Rain = 0
KVP1 241015Z 19007KT 04/04 A3001 RMK A01 T00400040  RH  100%=      5-min Rain = 0
KVP1 241016Z 18006KT 04/04 A3001 RMK A01 T00410041  RH  100%=      5-min Rain = 0
KVP1 241017Z 19005KT 04/04 A3001 RMK A01 T00410041  RH  100%=      5-min Rain = 0
KVP1 241018Z 19005KT 04/04 A3001 RMK A01 T00420041  RH  100%=      5-min Rain = 0
KVP1 241019Z 19005KT 04/04 A3001 RMK A01 T00420041  RH  099%=      5-min Rain = 0
KVP1 241020Z 20005KT 04/04 A3001 RMK A01 T00420041  RH  099%=      5-min Rain = 0
KVP1 241021Z 20005KT 04/04 A3001 RMK A01 T00420040  RH  099%=      5-min Rain = 0
KVP1 241022Z 20005KT 04/04 A3001 RMK A01 T00410039  RH  099%=      5-min Rain = 0
KVP1 241023Z 20006KT 04/04 A3002 RMK A01 T00410039  RH  099%=      5-min Rain = 0
KVP1 241024Z 20006KT 04/04 A3002 RMK A01 T00400038  RH  098%=      5-min Rain = 0
KVP1 241025Z 20006KT 04/04 A3002 RMK A01 T00400037  RH  098%=      5-min Rain = 0
KVP1 241026Z 20006KT 04/04 A3001 RMK A01 T00400037  RH  098%=      5-min Rain = 0
KVP1 241027Z 21006KT 04/04 A3001 RMK A01 T00390036  RH  098%=      5-min Rain = 0
KVP1 241028Z 21005KT 04/04 A3001 RMK A01 T00390036  RH  098%=      5-min Rain = 0
KVP1 241029Z 21005KT 04/04 A3001 RMK A01 T00390036  RH  098%=      5-min Rain = 0
KVP1 241030Z 21005KT 04/04 A3001 RMK A01 T00380036  RH  098%=      5-min Rain = 0
KVP1 241031Z 21005KT 04/04 A3001 RMK A01 T00380035  RH  098%=      5-min Rain = 0
KVP1 241032Z 21005KT 04/03 A3001 RMK A01 T00380034  RH  098%=      5-min Rain = 0
KVP1 241033Z 22005KT 04/03 A3001 RMK A01 T00370034  RH  098%=      5-min Rain = 0
KVP1 241034Z 23005KT 04/03 A3001 RMK A01 T00370033  RH  098%=      5-min Rain = 0
KVP1 241035Z 23005KT 04/03 A3001 RMK A01 T00360032  RH  098%=      5-min Rain = 0
KVP1 241036Z 24005KT 04/03 A3001 RMK A01 T00350032  RH  098%=      5-min Rain = 0
KVP1 241037Z 24005KT 03/03 A3001 RMK A01 T00340031  RH  097%=      5-min Rain = 0
KVP1 241038Z 23004KT 03/03 A30 RMK A01 T00330029  RH  097%=      5-min Rain = 0
KVP1 241039Z 23004KT 03/03 A30 RMK A01 T00320028  RH  097%=      5-min Rain = 0
KVP1 241040Z 23005KT 03/03 A30 RMK A01 T00320028  RH  097%=      5-min Rain = 0
KVP1 241041Z 23005KT 03/03 A30 RMK A01 T00320028  RH  098%=      5-min Rain = 0
KVP1 241042Z 23006KT 03/03 A30 RMK A01 T00320029  RH  098%=      5-min Rain = 0
KVP1 241043Z 23006KT 03/03 A30 RMK A01 T00310029  RH  098%=      5-min Rain = 0
KVP1 241044Z 23005KT 03/03 A30 RMK A01 T00310028  RH  098%=      5-min Rain = 0
KVP1 241045Z 23005KT 03/03 A30 RMK A01 T00300027  RH  098%=      5-min Rain = 0
KVP1 241046Z 23005KT 03/03 A30 RMK A01 T00300027  RH  098%=      5-min Rain = 0
KVP1 241047Z 23005KT 03/03 A30 RMK A01 T00300028  RH  098%=      5-min Rain = 0
KVP1 241048Z 23005KT 03/03 A30 RMK A01 T00300028  RH  099%=      5-min Rain = 0
KVP1 241049Z 22005KT 03/03 A30 RMK A01 T00300028  RH  099%=      5-min Rain = 0
KVP1 241050Z 22005KT 03/03 A30 RMK A01 T00300028  RH  099%=      5-min Rain = 0
KVP1 241051Z 22005KT 03/03 A30 RMK A01 T00300028  RH  099%=      5-min Rain = 0
KVP1 241052Z 22005KT 03/03 A30 RMK A01 T00300029  RH  099%=      5-min Rain = 0
KVP1 241053Z 22005KT 03/03 A30 RMK A01 T00300029  RH  099%=      5-min Rain = 0
KVP1 241054Z 22006KT 03/03 A30 RMK A01 T00310030  RH  100%=      5-min Rain = 0
KVP1 241055Z 23006KT 03/03 A30 RMK A01 T00310030  RH  100%=      5-min Rain = 0
KVP1 241056Z 23006KT 03/03 A30 RMK A01 T00310030  RH  100%=      5-min Rain = 0
KVP1 241057Z 23006KT 03/03 A30 RMK A01 T00300029  RH  099%=      5-min Rain = 0
KVP1 241058Z 23007KT 03/03 A30 RMK A01 T00290028  RH  099%=      5-min Rain = 0
KVP1 241059Z 23006KT 03/03 A30 RMK A01 T00290028  RH  099%=      5-min Rain = 0
KVP1 241100Z 24006KT 03/03 A30 RMK A01 T00290028  RH  099%=      5-min Rain = 0
KVP1 241101Z 24006KT 03/03 A2999 RMK A01 T00280027  RH  099%=      5-min Rain = 0
KVP1 241102Z 25005KT 03/03 A2999 RMK A01 T00280027  RH  099%=      5-min Rain = 0
KVP1 241103Z 25005KT 03/03 A2999 RMK A01 T00280028  RH  100%=      5-min Rain = 0
KVP1 241104Z 26005KT 03/03 A2999 RMK A01 T00290028  RH  100%=      5-min Rain = 0
KVP1 241105Z 26005KT 03/03 A2999 RMK A01 T00290029  RH  100%=      5-min Rain = 0
KVP1 241106Z 27005KT 03/03 A2999 RMK A01 T00290029  RH  100%=      5-min Rain = 0
KVP1 241107Z 27005KT 03/03 A2999 RMK A01 T00300029  RH  100%=      5-min Rain = 0
KVP1 241108Z 27005KT 03/03 A2999 RMK A01 T00300030  RH  100%=      5-min Rain = 0
KVP1 241109Z 27005KT 03/03 A2999 RMK A01 T00300030  RH  100%=      5-min Rain = 0
KVP1 241110Z 28006KT 03/03 A2999 RMK A01 T00300030  RH  100%=      5-min Rain = 0
KVP1 241111Z 29006KT 03/03 A2999 RMK A01 T00300030  RH  100%=      5-min Rain = 0
KVP1 241112Z 29006KT 03/03 A2999 RMK A01 T00310031  RH  100%=      5-min Rain = 0
KVP1 241113Z 30006KT 03/03 A2999 RMK A01 T00320032  RH  100%=      5-min Rain = 0
KVP1 241114Z 30006KT 03/03 A2999 RMK A01 T00310031  RH  100%=      5-min Rain = 0
KVP1 241115Z 31006KT 03/03 A2999 RMK A01 T00320032  RH  100%=      5-min Rain = 0
KVP1 241116Z 31006KT 03/03 A2999 RMK A01 T00310031  RH  100%=      5-min Rain = 0
KVP1 241117Z 31006KT 03/03 A2999 RMK A01 T00320032  RH  100%=      5-min Rain = 0
KVP1 241118Z 31005KT 03/03 A2999 RMK A01 T00310031  RH  100%=      5-min Rain = 0
KVP1 241119Z 31005KT 03/03 A2999 RMK A01 T00310031  RH  100%=      5-min Rain = 0
KVP1 241120Z 30005KT 03/03 A2999 RMK A01 T00310031  RH  100%=      5-min Rain = 0
KVP1 241121Z 30004KT 03/03 A2999 RMK A01 T00310031  RH  100%=      5-min Rain = 0
KVP1 241122Z 29004KT 03/03 A2999 RMK A01 T00310031  RH  100%=      5-min Rain = 0
KVP1 241123Z 27004KT 03/03 A2999 RMK A01 T00310031  RH  100%=      5-min Rain = 0
KVP1 241124Z 26004KT 03/03 A2999 RMK A01 T00320031  RH  100%=      5-min Rain = 0
KVP1 241125Z 25004KT 03/03 A30 RMK A01 T00310030  RH  100%=      5-min Rain = 0
KVP1 241126Z 25005KT 03/03 A30 RMK A01 T00290028  RH  099%=      5-min Rain = 0
KVP1 241127Z 24005KT 03/03 A30 RMK A01 T00280027  RH  099%=      5-min Rain = 0
KVP1 241128Z 23005KT 03/03 A30 RMK A01 T00280026  RH  099%=      5-min Rain = 0
KVP1 241129Z 23005KT 03/03 A30 RMK A01 T00270026  RH  099%=      5-min Rain = 0
KVP1 241130Z 23005KT 03/03 A30 RMK A01 T00270026  RH  099%=      5-min Rain = 0
KVP1 241131Z 24005KT 03/03 A30 RMK A01 T00270027  RH  100%=      5-min Rain = 0
KVP1 241132Z 24005KT 03/03 A30 RMK A01 T00270026  RH  100%=      5-min Rain = 0
KVP1 241133Z 24005KT 03/03 A30 RMK A01 T00270027  RH  100%=      5-min Rain = 0
KVP1 241134Z 24005KT 03/03 A2999 RMK A01 T00270026  RH  100%=      5-min Rain = 0
KVP1 241135Z 25005KT 03/03 A2999 RMK A01 T00270026  RH  100%=      5-min Rain = 0
KVP1 241136Z 25005KT 03/03 A2999 RMK A01 T00260026  RH  100%=      5-min Rain = 0
KVP1 241137Z 25004KT 03/03 A2999 RMK A01 T00260026  RH  100%=      5-min Rain = 0
KVP1 241138Z 25004KT 03/03 A2999 RMK A01 T00260026  RH  100%=      5-min Rain = 0
KVP1 241139Z 25004KT 03/03 A2999 RMK A01 T00260026  RH  100%=      5-min Rain = 0
KVP1 241140Z 26005KT 03/03 A2999 RMK A01 T00270027  RH  100%=      5-min Rain = 0
KVP1 241141Z 26005KT 03/03 A2999 RMK A01 T00270027  RH  100%=      5-min Rain = 0
KVP1 241142Z 26005KT 03/03 A2999 RMK A01 T00280028  RH  100%=      5-min Rain = 0
KVP1 241143Z 26005KT 03/03 A2999 RMK A01 T00280028  RH  100%=      5-min Rain = 0
KVP1 241144Z 26006KT 03/03 A2999 RMK A01 T00270027  RH  100%=      5-min Rain = 0
KVP1 241145Z 26006KT 03/03 A2999 RMK A01 T00260026  RH  100%=      5-min Rain = 0
KVP1 241146Z 27006KT 03/03 A2998 RMK A01 T00250025  RH  100%=      5-min Rain = 0
KVP1 241147Z 27007KT 03/03 A2998 RMK A01 T00250025  RH  100%=      5-min Rain = 0
KVP1 241148Z 27007KT 03/03 A2998 RMK A01 T00250025  RH  100%=      5-min Rain = 0
KVP1 241149Z 27007KT 03/03 A2998 RMK A01 T00250025  RH  100%=      5-min Rain = 0
KVP1 241150Z 28007KT 03/03 A2998 RMK A01 T00260025  RH  100%=      5-min Rain = 0
KVP1 241151Z 28007KT 03/03 A2998 RMK A01 T00260026  RH  100%=      5-min Rain = 0
KVP1 241152Z 28007KT 03/03 A2998 RMK A01 T00280028  RH  100%=      5-min Rain = 0
KVP1 241153Z 28007KT 03/03 A2998 RMK A01 T00290029  RH  100%=      5-min Rain = 0
KVP1 241154Z 28007KT 03/03 A2998 RMK A01 T00290029  RH  100%=      5-min Rain = 0
KVP1 241155Z 28007KT 03/03 A2998 RMK A01 T00290029  RH  100%=      5-min Rain = 0
KVP1 241156Z 29007KT 03/03 A2998 RMK A01 T00290029  RH  100%=      5-min Rain = 0
KVP1 241157Z 29007KT 03/03 A2998 RMK A01 T00300030  RH  100%=      5-min Rain = 0
KVP1 241158Z 29006KT 03/03 A2998 RMK A01 T00300030  RH  100%=      5-min Rain = 0
KVP1 241159Z 29005KT 03/03 A2998 RMK A01 T00300030  RH  100%=      5-min Rain = 0
KVP1 241200Z 29005KT 03/03 A2998 RMK A01 T00310031  RH  100%=      5-min Rain = 0
KVP1 241201Z 29004KT 03/03 A2999 RMK A01 T00300030  RH  100%=      5-min Rain = 0
KVP1 241202Z 29004KT 03/03 A2999 RMK A01 T00300030  RH  100%=      5-min Rain = 0
KVP1 241203Z 29004KT 03/03 A2999 RMK A01 T00300030  RH  100%=      5-min Rain = 0
KVP1 241204Z 29004KT 03/03 A2999 RMK A01 T00290029  RH  100%=      5-min Rain = 0
KVP1 241205Z 29004KT 03/03 A2999 RMK A01 T00290029  RH  100%=      5-min Rain = 0
KVP1 241206Z 29004KT 03/03 A2999 RMK A01 T00280028  RH  100%=      5-min Rain = 0
KVP1 241207Z 29004KT 03/03 A2999 RMK A01 T00280027  RH  100%=      5-min Rain = 0
KVP1 241208Z 29005KT 03/03 A2999 RMK A01 T00280027  RH  099%=      5-min Rain = 0
KVP1 241209Z 29005KT 03/03 A2999 RMK A01 T00270026  RH  099%=      5-min Rain = 0
KVP1 241210Z 28005KT 03/03 A2999 RMK A01 T00270026  RH  099%=      5-min Rain = 0
KVP1 241211Z 28005KT 03/03 A30 RMK A01 T00270026  RH  099%=      5-min Rain = 0
KVP1 241212Z 28005KT 03/03 A30 RMK A01 T00270026  RH  099%=      5-min Rain = 0
KVP1 241213Z 27005KT 03/03 A30 RMK A01 T00270026  RH  099%=      5-min Rain = 0
KVP1 241214Z 27006KT 03/03 A30 RMK A01 T00270026  RH  099%=      5-min Rain = 0
KVP1 241215Z 27006KT 03/03 A30 RMK A01 T00270026  RH  099%=      5-min Rain = 0
KVP1 241216Z 27006KT 03/03 A30 RMK A01 T00280027  RH  099%=      5-min Rain = 0
KVP1 241217Z 27006KT 03/03 A30 RMK A01 T00280027  RH  099%=      5-min Rain = 0
KVP1 241218Z 28006KT 03/03 A30 RMK A01 T00290028  RH  099%=      5-min Rain = 0
KVP1 241219Z 28006KT 03/03 A30 RMK A01 T00290028  RH  099%=      5-min Rain = 0
KVP1 241220Z 28006KT 03/03 A30 RMK A01 T00290028  RH  099%=      5-min Rain = 0
KVP1 241221Z 28005KT 03/03 A30 RMK A01 T00300028  RH  099%=      5-min Rain = 0
KVP1 241222Z 27005KT 03/03 A30 RMK A01 T00300028  RH  099%=      5-min Rain = 0
KVP1 241223Z 27005KT 03/03 A30 RMK A01 T00300028  RH  099%=      5-min Rain = 0
KVP1 241224Z 27005KT 03/03 A30 RMK A01 T00300028  RH  098%=      5-min Rain = 0
KVP1 241225Z 28005KT 03/03 A3001 RMK A01 T00300028  RH  098%=      5-min Rain = 0
KVP1 241226Z 28005KT 03/03 A3001 RMK A01 T00300028  RH  098%=      5-min Rain = 0
KVP1 241227Z 28005KT 03/03 A3001 RMK A01 T00300028  RH  098%=      5-min Rain = 0
KVP1 241228Z 28005KT 03/03 A3001 RMK A01 T00300028  RH  098%=      5-min Rain = 0
KVP1 241229Z 28005KT 03/03 A3001 RMK A01 T00300027  RH  098%=      5-min Rain = 0
KVP1 241230Z 28005KT 03/03 A3001 RMK A01 T00300028  RH  098%=      5-min Rain = 0
KVP1 241231Z 28005KT 03/03 A3001 RMK A01 T00300027  RH  098%=      5-min Rain = 0
KVP1 241232Z 28005KT 03/03 A3001 RMK A01 T00300027  RH  098%=      5-min Rain = 0
KVP1 241233Z 28005KT 03/03 A3001 RMK A01 T00300027  RH  098%=      5-min Rain = 0
KVP1 241234Z 28005KT 03/03 A3001 RMK A01 T00300027  RH  098%=      5-min Rain = 0
KVP1 241235Z 28005KT 03/03 A3001 RMK A01 T00300027  RH  098%=      5-min Rain = 0
KVP1 241236Z 28005KT 03/03 A3001 RMK A01 T00300027  RH  098%=      5-min Rain = 0
KVP1 241237Z 28005KT 03/03 A3001 RMK A01 T00300027  RH  098%=      5-min Rain = 0
KVP1 241238Z 28006KT 03/03 A3001 RMK A01 T00300027  RH  098%=      5-min Rain = 0
KVP1 241239Z 28005KT 03/03 A3001 RMK A01 T00300027  RH  098%=      5-min Rain = 0
KVP1 241240Z 27005KT 03/03 A3001 RMK A01 T00300027  RH  098%=      5-min Rain = 0
KVP1 241241Z 27005KT 03/03 A3001 RMK A01 T00300027  RH  098%=      5-min Rain = 0
KVP1 241242Z 27005KT 03/03 A3001 RMK A01 T00300027  RH  098%=      5-min Rain = 0
KVP1 241243Z 27004KT 03/03 A3001 RMK A01 T00300028  RH  098%=      5-min Rain = 0
KVP1 241244Z 27004KT 03/03 A3001 RMK A01 T00300027  RH  098%=      5-min Rain = 0
KVP1 241245Z 27005KT 03/03 A3001 RMK A01 T00300028  RH  098%=      5-min Rain = 0
KVP1 241246Z 27005KT 03/03 A3001 RMK A01 T00300027  RH  098%=      5-min Rain = 0
KVP1 241247Z 27005KT 03/03 A3001 RMK A01 T00300027  RH  098%=      5-min Rain = 0
KVP1 241248Z 26005KT 03/03 A3002 RMK A01 T00300027  RH  098%=      5-min Rain = 0
KVP1 241249Z 26005KT 03/03 A3002 RMK A01 T00300028  RH  098%=      5-min Rain = 0
KVP1 241250Z 25005KT 03/03 A3002 RMK A01 T00300028  RH  098%=      5-min Rain = 0
KVP1 241251Z 25005KT 03/03 A3002 RMK A01 T00300028  RH  098%=      5-min Rain = 0
KVP1 241252Z 25005KT 03/03 A3002 RMK A01 T00310029  RH  098%=      5-min Rain = 0
KVP1 241253Z 25006KT 03/03 A3002 RMK A01 T00320030  RH  099%=      5-min Rain = 0
KVP1 241254Z 26006KT 03/03 A3002 RMK A01 T00330031  RH  099%=      5-min Rain = 0
KVP1 241255Z 26005KT 03/03 A3002 RMK A01 T00340033  RH  099%=      5-min Rain = 0
KVP1 241256Z 26005KT 04/03 A3002 RMK A01 T00350033  RH  099%=      5-min Rain = 0
KVP1 241257Z 26006KT 04/03 A3002 RMK A01 T00360034  RH  099%=      5-min Rain = 0
KVP1 241258Z 26006KT 04/04 A3002 RMK A01 T00370035  RH  099%=      5-min Rain = 0
KVP1 241259Z 26005KT 04/04 A3002 RMK A01 T00380036  RH  098%=      5-min Rain = 0
KVP1 241300Z 26006KT 04/04 A3002 RMK A01 T00390037  RH  098%=      5-min Rain = 0
KVP1 241301Z 27005KT 04/04 A3002 RMK A01 T00400038  RH  098%=      5-min Rain = 0
KVP1 241302Z 27006KT 04/04 A3002 RMK A01 T00420038  RH  098%=      5-min Rain = 0
KVP1 241303Z 27005KT 04/04 A3002 RMK A01 T00430039  RH  097%=      5-min Rain = 0
KVP1 241304Z 27005KT 04/04 A3002 RMK A01 T00440040  RH  097%=      5-min Rain = 0
KVP1 241305Z 27005KT 05/04 A3002 RMK A01 T00450040  RH  097%=      5-min Rain = 0
KVP1 241306Z 27005KT 05/04 A3002 RMK A01 T00460041  RH  097%=      5-min Rain = 0
KVP1 241307Z 28006KT 05/04 A3002 RMK A01 T00460041  RH  097%=      5-min Rain = 0
KVP1 241308Z 27006KT 05/04 A3002 RMK A01 T00470041  RH  096%=      5-min Rain = 0
KVP1 241309Z 27005KT 05/04 A3002 RMK A01 T00470041  RH  096%=      5-min Rain = 0
KVP1 241310Z 27006KT 05/04 A3002 RMK A01 T00480042  RH  096%=      5-min Rain = 0
KVP1 241311Z 27007KT 05/04 A3002 RMK A01 T00490042  RH  095%=      5-min Rain = 0
KVP1 241312Z 27007KT 05/04 A3002 RMK A01 T00500042  RH  095%=      5-min Rain = 0
KVP1 241313Z 27007KT 05/04 A3002 RMK A01 T00500043  RH  095%=      5-min Rain = 0
KVP1 241314Z 27007KT 05/04 A3002 RMK A01 T00510044  RH  095%=      5-min Rain = 0
KVP1 241315Z 28007KT 05/04 A3002 RMK A01 T00510043  RH  094%=      5-min Rain = 0
KVP1 241316Z 28006KT 05/04 A3002 RMK A01 T00520044  RH  095%=      5-min Rain = 0
KVP1 241317Z 28007KT 05/05 A3002 RMK A01 T00540047  RH  095%=      5-min Rain = 0
KVP1 241318Z 28007KT 06/05 A3002 RMK A01 T00550047  RH  095%=      5-min Rain = 0
KVP1 241319Z 28007KT 06/05 A3002 RMK A01 T00560047  RH  094%=      5-min Rain = 0
KVP1 241320Z 29006KT 06/05 A3002 RMK A01 T00580050  RH  094%=      5-min Rain = 0
KVP1 241321Z 28006KT 06/05 A3002 RMK A01 T00590050  RH  094%=      5-min Rain = 0
KVP1 241322Z 28007KT 06/05 A3002 RMK A01 T00610052  RH  094%=      5-min Rain = 0
KVP1 241323Z 28008KT 06/05 A3002 RMK A01 T00620052  RH  093%=      5-min Rain = 0
KVP1 241324Z 29008KT 06/05 A3002 RMK A01 T00630051  RH  092%=      5-min Rain = 0
KVP1 241325Z 28007KT 06/05 A3001 RMK A01 T00640050  RH  091%=      5-min Rain = 0
KVP1 241326Z 28008KT 07/05 A3001 RMK A01 T00650052  RH  091%=      5-min Rain = 0
KVP1 241327Z 28008KT 07/05 A3001 RMK A01 T00670052  RH  090%=      5-min Rain = 0
KVP1 241328Z 28008KT 07/05 A3001 RMK A01 T00680054  RH  091%=      5-min Rain = 0
KVP1 241329Z 28008KT 07/05 A3001 RMK A01 T00690054  RH  090%=      5-min Rain = 0
KVP1 241330Z 28007KT 07/05 A3001 RMK A01 T00700054  RH  089%=      5-min Rain = 0
KVP1 241331Z 28008KT 07/06 A3001 RMK A01 T00720058  RH  091%=      5-min Rain = 0
KVP1 241332Z 28007KT 07/06 A3001 RMK A01 T00730056  RH  089%=      5-min Rain = 0
KVP1 241333Z 28007KT 07/06 A3001 RMK A01 T00740056  RH  088%=      5-min Rain = 0
KVP1 241334Z 28007KT 08/06 A3001 RMK A01 T00750057  RH  089%=      5-min Rain = 0
KVP1 241335Z 28007KT 08/06 A3001 RMK A01 T00760059  RH  089%=      5-min Rain = 0
KVP1 241336Z 28008KT 08/06 A3001 RMK A01 T00780060  RH  089%=      5-min Rain = 0
KVP1 241337Z 28007KT 08/06 A3001 RMK A01 T00780057  RH  087%=      5-min Rain = 0
KVP1 241338Z 28008KT 08/06 A3001 RMK A01 T00780059  RH  087%=      5-min Rain = 0
KVP1 241339Z 28008KT 08/06 A3001 RMK A01 T00790060  RH  087%=      5-min Rain = 0
KVP1 241340Z 28007KT 08/06 A3001 RMK A01 T00800060  RH  087%=      5-min Rain = 0
KVP1 241341Z 28007KT 08/06 A3001 RMK A01 T00810062  RH  087%=      5-min Rain = 0
KVP1 241342Z 28009KT 08/06 A3001 RMK A01 T00830063  RH  088%=      5-min Rain = 0
KVP1 241343Z 28009KT 08/06 A3001 RMK A01 T00840060  RH  085%=      5-min Rain = 0
KVP1 241344Z 27008KT 08/06 A3001 RMK A01 T00840059  RH  084%=      5-min Rain = 0
KVP1 241345Z 27008KT 08/06 A3001 RMK A01 T00840061  RH  086%=      5-min Rain = 0
KVP1 241346Z 27008KT 09/06 A3001 RMK A01 T00850062  RH  086%=      5-min Rain = 0
KVP1 241347Z 28008KT 09/06 A3001 RMK A01 T00850064  RH  086%=      5-min Rain = 0
KVP1 241348Z 27008KT 09/06 A3001 RMK A01 T00860063  RH  085%=      5-min Rain = 0
KVP1 241349Z 27009KT 09/06 A3001 RMK A01 T00860060  RH  084%=      5-min Rain = 0
KVP1 241350Z 28009KT 09/06 A3001 RMK A01 T00850060  RH  084%=      5-min Rain = 0
KVP1 241351Z 28009KT 09/06 A3001 RMK A01 T00850060  RH  084%=      5-min Rain = 0
KVP1 241352Z 28008KT 09/06 A3001 RMK A01 T00860060  RH  084%=      5-min Rain = 0
KVP1 241353Z 28007KT 09/06 A3001 RMK A01 T00870063  RH  085%=      5-min Rain = 0
KVP1 241354Z 28009KT 09/06 A3001 RMK A01 T00880062  RH  084%=      5-min Rain = 0
KVP1 241355Z 28009KT 09/06 A3001 RMK A01 T00890060  RH  082%=      5-min Rain = 0
KVP1 241356Z 28010KT 09/06 A3001 RMK A01 T00890060  RH  082%=      5-min Rain = 0
KVP1 241357Z 28010KT 09/06 A3001 RMK A01 T00900059  RH  081%=      5-min Rain = 0
KVP1 241358Z 28010KT 09/06 A3001 RMK A01 T00900060  RH  081%=      5-min Rain = 0
KVP1 241359Z 28009KT 09/06 A3001 RMK A01 T00900061  RH  082%=      5-min Rain = 0
KVP1 241400Z 28009KT 09/06 A3001 RMK A01 T00900061  RH  082%=      5-min Rain = 0
KVP1 241401Z 28008KT 09/06 A3001 RMK A01 T00900062  RH  083%=      5-min Rain = 0
KVP1 241402Z 28009KT 09/07 A3001 RMK A01 T00910065  RH  084%=      5-min Rain = 0
KVP1 241403Z 28008KT 09/07 A3001 RMK A01 T00920066  RH  083%=      5-min Rain = 0
KVP1 241404Z 29008KT 09/07 A3001 RMK A01 T00940067  RH  083%=      5-min Rain = 0
KVP1 241405Z 29011KT 09/06 A3001 RMK A01 T00940062  RH  080%=      5-min Rain = 0
KVP1 241406Z 29010KT 09/06 A3001 RMK A01 T00940060  RH  079%=      5-min Rain = 0
KVP1 241407Z 28010KT 09/06 A3001 RMK A01 T00930059  RH  079%=      5-min Rain = 0
KVP1 241408Z 28009KT 09/06 A3001 RMK A01 T00930060  RH  080%=      5-min Rain = 0
KVP1 241409Z 28008KT 09/06 A3001 RMK A01 T00940063  RH  081%=      5-min Rain = 0
KVP1 241410Z 28008KT 10/07 A3001 RMK A01 T00970065  RH  081%=      5-min Rain = 0
KVP1 241411Z 28008KT 10/06 A3001 RMK A01 T00970064  RH  080%=      5-min Rain = 0
KVP1 241412Z 28008KT 10/07 A3001 RMK A01 T00980066  RH  081%=      5-min Rain = 0
KVP1 241413Z 29008KT 10/07 A3001 RMK A01 T01000069  RH  081%=      5-min Rain = 0
KVP1 241414Z 29008KT 10/06 A3001 RMK A01 T01010064  RH  078%=      5-min Rain = 0
KVP1 241415Z 28008KT 10/06 A3001 RMK A01 T01010062  RH  076%=      5-min Rain = 0
KVP1 241416Z 29008KT 10/07 A3001 RMK A01 T01010065  RH  078%=      5-min Rain = 0
KVP1 241417Z 28007KT 10/06 A3001 RMK A01 T01020064  RH  077%=      5-min Rain = 0
KVP1 241418Z 28008KT 10/07 A3001 RMK A01 T01030066  RH  078%=      5-min Rain = 0
KVP1 241419Z 28007KT 10/06 A3001 RMK A01 T01040064  RH  076%=      5-min Rain = 0
KVP1 241420Z 30008KT 11/07 A3001 RMK A01 T01050066  RH  077%=      5-min Rain = 0
KVP1 241435Z 28008KT 11/06 A3001 RMK A01 T01110060  RH  071%=      5-min Rain = 0
KVP1 241436Z 28008KT 11/06 A3001 RMK A01 T01100059  RH  071%=      5-min Rain = 0
KVP1 241437Z 28009KT 11/06 A30 RMK A01 T01100056  RH  069%=      5-min Rain = 0
KVP1 241438Z 28009KT 11/06 A30 RMK A01 T01090056  RH  070%=      5-min Rain = 0
KVP1 241439Z 28006KT 11/06 A30 RMK A01 T01090055  RH  069%=      5-min Rain = 0
KVP1 241440Z 27007KT 11/06 A30 RMK A01 T01110060  RH  071%=      5-min Rain = 0
KVP1 241441Z 28008KT 11/06 A30 RMK A01 T01130060  RH  070%=      5-min Rain = 0
KVP1 241442Z 28008KT 11/06 A30 RMK A01 T01140062  RH  070%=      5-min Rain = 0
KVP1 241443Z 29009KT 12/06 A30 RMK A01 T01150056  RH  067%=      5-min Rain = 0
KVP1 241444Z 29008KT 11/06 A30 RMK A01 T01130056  RH  068%=      5-min Rain = 0
KVP1 241445Z 29008KT 11/06 A30 RMK A01 T01130055  RH  067%=      5-min Rain = 0
KVP1 241446Z 28008KT 11/06 A30 RMK A01 T01130057  RH  068%=      5-min Rain = 0
KVP1 241447Z 27008KT 12/06 A2999 RMK A01 T01150057  RH  068%=      5-min Rain = 0
KVP1 241448Z 29009KT 12/06 A2999 RMK A01 T01160058  RH  068%=      5-min Rain = 0
KVP1 241449Z 27007KT 12/06 A2999 RMK A01 T01170062  RH  069%=      5-min Rain = 0
KVP1 241450Z 28008KT 12/06 A2999 RMK A01 T01180061  RH  068%=      5-min Rain = 0
KVP1 241451Z 28009KT 12/05 A2999 RMK A01 T01180054  RH  065%=      5-min Rain = 0
KVP1 241452Z 27008KT 12/06 A2999 RMK A01 T01170055  RH  066%=      5-min Rain = 0
KVP1 241453Z 27007KT 12/05 A2999 RMK A01 T01170054  RH  065%=      5-min Rain = 0
KVP1 241454Z 29008KT 12/06 A2999 RMK A01 T01190061  RH  068%=      5-min Rain = 0
KVP1 241455Z 29008KT 12/06 A2999 RMK A01 T01200058  RH  066%=      5-min Rain = 0
KVP1 241456Z 30008KT 12/06 A2999 RMK A01 T01200059  RH  067%=      5-min Rain = 0
KVP1 241457Z 30008KT 12/06 A2999 RMK A01 T01200057  RH  065%=      5-min Rain = 0
KVP1 241458Z 29009KT 12/06 A2999 RMK A01 T01210057  RH  065%=      5-min Rain = 0
KVP1 241459Z 29008KT 12/06 A2999 RMK A01 T01210057  RH  065%=      5-min Rain = 0
KVP1 241500Z 28009KT 12/06 A2999 RMK A01 T01210055  RH  064%=      5-min Rain = 0
KVP1 241501Z 29010KT 12/06 A2999 RMK A01 T01220055  RH  064%=      5-min Rain = 0
KVP1 241502Z 29008KT 12/05 A2999 RMK A01 T01210054  RH  063%=      5-min Rain = 0
KVP1 241503Z 30009KT 12/05 A2999 RMK A01 T01210054  RH  064%=      5-min Rain = 0
KVP1 241504Z 31010KT 12/05 A2999 RMK A01 T01210052  RH  063%=      5-min Rain = 0
KVP1 241505Z 30008KT 12/05 A2999 RMK A01 T01210052  RH  063%=      5-min Rain = 0
KVP1 241506Z 29010KT 12/06 A2999 RMK A01 T01220055  RH  064%=      5-min Rain = 0
KVP1 241507Z 28009KT 12/06 A2999 RMK A01 T01220055  RH  064%=      5-min Rain = 0
KVP1 241508Z 28008KT 12/06 A2999 RMK A01 T01230058  RH  064%=      5-min Rain = 0
KVP1 241509Z 28008KT 13/06 A2999 RMK A01 T01250057  RH  063%=      5-min Rain = 0
KVP1 241510Z 29008KT 12/06 A2999 RMK A01 T01230056  RH  064%=      5-min Rain = 0
KVP1 241511Z 29007KT 12/06 A2999 RMK A01 T01220058  RH  065%=      5-min Rain = 0
KVP1 241512Z 28008KT 12/06 A2999 RMK A01 T01240060  RH  065%=      5-min Rain = 0
KVP1 241513Z 28007KT 13/06 A2999 RMK A01 T01260058  RH  063%=      5-min Rain = 0
KVP1 241514Z 27008KT 13/06 A2999 RMK A01 T01260056  RH  062%=      5-min Rain = 0
KVP1 241515Z 28008KT 13/06 A2999 RMK A01 T01260056  RH  062%=      5-min Rain = 0
KVP1 241516Z 31007KT 13/06 A2999 RMK A01 T01270056  RH  062%=      5-min Rain = 0
KVP1 241517Z 30007KT 13/06 A2999 RMK A01 T01260055  RH  062%=      5-min Rain = 0
KVP1 241518Z 29009KT 13/06 A2999 RMK A01 T01260056  RH  062%=      5-min Rain = 0
KVP1 241519Z 31008KT 13/06 A2999 RMK A01 T01270055  RH  062%=      5-min Rain = 0
KVP1 241520Z 30006KT 13/06 A2999 RMK A01 T01270057  RH  062%=      5-min Rain = 0
KVP1 241521Z 27008KT 13/06 A2999 RMK A01 T01290058  RH  062%=      5-min Rain = 0
KVP1 241522Z 29006KT 13/06 A2999 RMK A01 T01290058  RH  062%=      5-min Rain = 0
KVP1 241523Z 31007KT 13/06 A2999 RMK A01 T01310062  RH  063%=      5-min Rain = 0
KVP1 241524Z 29006KT 13/06 A2999 RMK A01 T01320058  RH  061%=      5-min Rain = 0
KVP1 241525Z 29006KT 13/06 A2999 RMK A01 T01320062  RH  062%=      5-min Rain = 0
KVP1 241531Z 28006KT 13/06 A2999 RMK A01 T01320057  RH  060%=      5-min Rain = 0
KVP1 241532Z 30007KT 13/06 A2999 RMK A01 T01320058  RH  061%=      5-min Rain = 0
KVP1 241533Z 32007KT 13/06 A2999 RMK A01 T01330062  RH  062%=      5-min Rain = 0
KVP1 241534Z 31008KT 13/06 A2999 RMK A01 T01340058  RH  060%=      5-min Rain = 0
KVP1 241535Z 30007KT 13/06 A2999 RMK A01 T01320056  RH  060%=      5-min Rain = 0
KVP1 241536Z 30006KT 13/06 A2999 RMK A01 T01310059  RH  062%=      5-min Rain = 0
KVP1 241537Z 30009KT 13/06 A2999 RMK A01 T01340063  RH  062%=      5-min Rain = 0
KVP1 241538Z 30009KT 14/06 A2999 RMK A01 T01360061  RH  060%=      5-min Rain = 0
KVP1 241539Z 31006KT 13/06 A2999 RMK A01 T01340059  RH  060%=      5-min Rain = 0
KVP1 241540Z 29008KT 13/06 A2999 RMK A01 T01330059  RH  061%=      5-min Rain = 0
KVP1 241541Z 30008KT 13/06 A2999 RMK A01 T01340061  RH  061%=      5-min Rain = 0
KVP1 241542Z 29009KT 14/06 A2999 RMK A01 T01350064  RH  062%=      5-min Rain = 0
KVP1 241543Z 30007KT 14/07 A2999 RMK A01 T01380067  RH  062%=      5-min Rain = 0
KVP1 241544Z 29008KT 14/06 A2999 RMK A01 T01400063  RH  060%=      5-min Rain = 0
KVP1 241545Z 29008KT 14/06 A2999 RMK A01 T01380060  RH  059%=      5-min Rain = 0
KVP1 241546Z 30006KT 14/06 A2999 RMK A01 T01370064  RH  061%=      5-min Rain = 0
KVP1 241547Z 32007KT 14/06 A2999 RMK A01 T01360064  RH  062%=      5-min Rain = 0
KVP1 241548Z 30007KT 14/07 A2999 RMK A01 T01380068  RH  062%=      5-min Rain = 0
KVP1 241549Z 30008KT 14/07 A2999 RMK A01 T01410065  RH  060%=      5-min Rain = 0
KVP1 241550Z 30004KT 14/06 A2999 RMK A01 T01390063  RH  060%=      5-min Rain = 0
KVP1 241551Z 32009G14KT 14/07 A30 RMK A01 T01390066  RH  061%=      5-min Rain = 0
KVP1 241552Z 31009KT 14/07 A30 RMK A01 T01410066  RH  060%=      5-min Rain = 0
KVP1 241553Z 31008KT 14/06 A30 RMK A01 T01420064  RH  059%=      5-min Rain = 0
KVP1 241554Z 31008KT 14/06 A30 RMK A01 T01400062  RH  059%=      5-min Rain = 0
KVP1 241555Z 31008KT 14/07 A30 RMK A01 T01390065  RH  061%=      5-min Rain = 0
KVP1 241556Z 31009KT 14/07 A30 RMK A01 T01420070  RH  062%=      5-min Rain = 0
KVP1 241557Z 32008KT 14/07 A30 RMK A01 T01440069  RH  060%=      5-min Rain = 0
KVP1 241558Z 33006KT 14/06 A30 RMK A01 T01430063  RH  058%=      5-min Rain = 0
KVP1 241559Z 30007KT 14/07 A30 RMK A01 T01410070  RH  062%=      5-min Rain = 0
KVP1 241600Z 30005KT 14/07 A30 RMK A01 T01420067  RH  061%=      5-min Rain = 0
KVP1 241601Z 31006KT 14/07 A30 RMK A01 T01420068  RH  061%=      5-min Rain = 0
KVP1 241602Z 29006KT 14/07 A30 RMK A01 T01420072  RH  063%=      5-min Rain = 0
KVP1 241603Z 28004KT 14/07 A30 RMK A01 T01440073  RH  062%=      5-min Rain = 0
KVP1 241604Z 28008KT 15/07 A30 RMK A01 T01460073  RH  061%=      5-min Rain = 0
KVP1 241605Z 32009KT 15/07 A30 RMK A01 T01470072  RH  061%=      5-min Rain = 0
KVP1 241606Z 33008KT 15/07 A30 RMK A01 T01470066  RH  058%=      5-min Rain = 0
KVP1 241607Z 33008KT 14/07 A30 RMK A01 T01440069  RH  061%=      5-min Rain = 0
KVP1 241608Z 32006KT 14/07 A3001 RMK A01 T01440070  RH  061%=      5-min Rain = 0
KVP1 241609Z 33007KT 15/07 A3001 RMK A01 T01460074  RH  062%=      5-min Rain = 0
KVP1 241610Z 33008KT 15/07 A3001 RMK A01 T01480072  RH  061%=      5-min Rain = 0
KVP1 241611Z 32006KT 15/07 A3001 RMK A01 T01470071  RH  060%=      5-min Rain = 0
KVP1 241612Z 34007KT 15/08 A3001 RMK A01 T01470076  RH  062%=      5-min Rain = 0
KVP1 241613Z 33007KT 15/08 A3001 RMK A01 T01490076  RH  062%=      5-min Rain = 0
KVP1 241614Z 30008KT 15/08 A3001 RMK A01 T01510078  RH  062%=      5-min Rain = 0
KVP1 241615Z 31006KT 15/08 A3001 RMK A01 T01540077  RH  060%=      5-min Rain = 0
KVP1 241616Z 28006KT 16/07 A3001 RMK A01 T01550074  RH  058%=      5-min Rain = 0
KVP1 241617Z 29005KT 15/08 A3001 RMK A01 T01530076  RH  060%=      5-min Rain = 0
KVP1 241618Z 31004KT 15/07 A3001 RMK A01 T01530074  RH  059%=      5-min Rain = 0
KVP1 241619Z 34008KT 15/08 A3001 RMK A01 T01530075  RH  060%=      5-min Rain = 0
KVP1 241620Z 32008KT 16/08 A3001 RMK A01 T01550077  RH  060%=      5-min Rain = 0
KVP1 241621Z 32009KT 16/08 A3001 RMK A01 T01550077  RH  059%=      5-min Rain = 0
KVP1 241622Z 32007KT 16/07 A3001 RMK A01 T01560072  RH  057%=      5-min Rain = 0
KVP1 241623Z 32004KT 15/07 A3001 RMK A01 T01540067  RH  056%=      5-min Rain = 0
KVP1 241624Z 33008KT 15/07 A3001 RMK A01 T01520072  RH  059%=      5-min Rain = 0
KVP1 241625Z 32007KT 15/07 A3001 RMK A01 T01520073  RH  059%=      5-min Rain = 0
KVP1 241626Z 33007KT 15/07 A3001 RMK A01 T01530072  RH  058%=      5-min Rain = 0
KVP1 241627Z 33009KT 15/07 A3001 RMK A01 T01530072  RH  059%=      5-min Rain = 0
KVP1 241628Z 34008KT 15/07 A3001 RMK A01 T01540069  RH  057%=      5-min Rain = 0
KVP1 241629Z 34004KT 15/07 A3001 RMK A01 T01530067  RH  056%=      5-min Rain = 0
KVP1 241630Z 36004KT 15/07 A3001 RMK A01 T01520071  RH  058%=      5-min Rain = 0
KVP1 241631Z 35004KT 15/07 A3001 RMK A01 T01530074  RH  059%=      5-min Rain = 0
KVP1 241632Z 35004KT 16/07 A3001 RMK A01 T01560071  RH  057%=      5-min Rain = 0
KVP1 241633Z 33005KT 16/07 A3001 RMK A01 T01560069  RH  056%=      5-min Rain = 0
KVP1 241634Z 32002KT 15/07 A3001 RMK A01 T01540067  RH  056%=      5-min Rain = 0
KVP1 241635Z 29005KT 15/07 A3001 RMK A01 T01530072  RH  058%=      5-min Rain = 0
KVP1 241636Z 28004KT 15/07 A3001 RMK A01 T01540070  RH  057%=      5-min Rain = 0
KVP1 241637Z 32007KT 15/07 A3001 RMK A01 T01530072  RH  058%=      5-min Rain = 0
KVP1 241638Z 32007KT 15/07 A3001 RMK A01 T01540072  RH  058%=      5-min Rain = 0
KVP1 241639Z 33006KT 16/07 A3001 RMK A01 T01550068  RH  056%=      5-min Rain = 0
KVP1 241640Z 32009KT 16/08 A3001 RMK A01 T01560077  RH  059%=      5-min Rain = 0
KVP1 241641Z 31008KT 16/07 A3001 RMK A01 T01600072  RH  056%=      5-min Rain = 0
KVP1 241642Z 31006KT 16/08 A3001 RMK A01 T01610075  RH  057%=      5-min Rain = 0
KVP1 241643Z 30006KT 16/07 A3001 RMK A01 T01620074  RH  056%=      5-min Rain = 0
KVP1 241644Z 31005KT 16/07 A30 RMK A01 T01620072  RH  055%=      5-min Rain = 0
KVP1 241645Z 31006KT 16/07 A30 RMK A01 T01600074  RH  057%=      5-min Rain = 0
KVP1 241646Z 30006KT 16/07 A30 RMK A01 T01610072  RH  056%=      5-min Rain = 0
KVP1 241647Z 30004KT 16/07 A30 RMK A01 T01590071  RH  056%=      5-min Rain = 0
KVP1 241648Z 34004KT 16/07 A30 RMK A01 T01580073  RH  057%=      5-min Rain = 0
KVP1 241649Z 34005KT 16/07 A30 RMK A01 T01580072  RH  057%=      5-min Rain = 0
KVP1 241650Z 35007KT 16/07 A30 RMK A01 T01580069  RH  056%=      5-min Rain = 0
KVP1 241651Z 01003KT 16/06 A30 RMK A01 T01560064  RH  054%=      5-min Rain = 0
KVP1 241652Z 36006KT 16/07 A30 RMK A01 T01560070  RH  057%=      5-min Rain = 0
KVP1 241653Z 34006KT 16/07 A30 RMK A01 T01580072  RH  057%=      5-min Rain = 0
KVP1 241654Z 30005KT 16/08 A30 RMK A01 T01610079  RH  058%=      5-min Rain = 0
KVP1 241655Z 28004KT 16/08 A30 RMK A01 T01640077  RH  056%=      5-min Rain = 0
KVP1 241656Z 32006KT 17/08 A30 RMK A01 T01650080  RH  057%=      5-min Rain = 0
KVP1 241657Z 33011KT 17/08 A2999 RMK A01 T01670081  RH  057%=      5-min Rain = 0
KVP1 241658Z 35009KT 17/08 A2999 RMK A01 T01690076  RH  054%=      5-min Rain = 0
KVP1 241659Z 34008KT 17/07 A2999 RMK A01 T01680074  RH  054%=      5-min Rain = 0
KVP1 241700Z 35010KT 17/08 A2999 RMK A01 T01660075  RH  055%=      5-min Rain = 0
KVP1 241701Z 36009KT 17/07 A2999 RMK A01 T01660072  RH  054%=      5-min Rain = 0
KVP1 241702Z 35008KT 17/07 A2999 RMK A01 T01650070  RH  054%=      5-min Rain = 0
KVP1 241703Z 33007KT 16/07 A2999 RMK A01 T01640068  RH  053%=      5-min Rain = 0
KVP1 241704Z 34006KT 16/07 A2999 RMK A01 T01630066  RH  053%=      5-min Rain = 0
KVP1 241705Z 35003KT 16/08 A2999 RMK A01 T01630076  RH  057%=      5-min Rain = 0
KVP1 241706Z 33003KT 17/07 A2999 RMK A01 T01660073  RH  054%=      5-min Rain = 0
KVP1 241707Z 34009KT 17/08 A2999 RMK A01 T01670075  RH  055%=      5-min Rain = 0
KVP1 241708Z 34008KT 17/08 A2999 RMK A01 T01680076  RH  054%=      5-min Rain = 0
KVP1 241709Z 34009KT 17/08 A2999 RMK A01 T01700077  RH  054%=      5-min Rain = 0
KVP1 241710Z 35008KT 17/08 A2999 RMK A01 T01690076  RH  054%=      5-min Rain = 0
KVP1 241711Z 34010KT 17/08 A2999 RMK A01 T01690077  RH  055%=      5-min Rain = 0
KVP1 241712Z 36009KT 17/07 A2999 RMK A01 T01690074  RH  054%=      5-min Rain = 0
KVP1 241713Z 35010KT 17/07 A2999 RMK A01 T01690073  RH  053%=      5-min Rain = 0
KVP1 241714Z 34009KT 17/08 A2999 RMK A01 T01680076  RH  055%=      5-min Rain = 0
KVP1 241715Z 34008KT 17/08 A2999 RMK A01 T01690075  RH  054%=      5-min Rain = 0
KVP1 241716Z 34006KT 17/07 A2999 RMK A01 T01690071  RH  052%=      5-min Rain = 0
KVP1 241717Z 33010KT 17/07 A2999 RMK A01 T01680074  RH  054%=      5-min Rain = 0
KVP1 241718Z 33008KT 17/07 A2999 RMK A01 T01700074  RH  053%=      5-min Rain = 0
KVP1 241719Z 32006KT 17/07 A2999 RMK A01 T01710070  RH  052%=      5-min Rain = 0
KVP1 241720Z 32005KT 17/07 A2999 RMK A01 T01700068  RH  051%=      5-min Rain = 0
KVP1 241721Z 32006KT 17/07 A2999 RMK A01 T01690068  RH  051%=      5-min Rain = 0
KVP1 241722Z 32008KT 17/07 A2999 RMK A01 T01700072  RH  053%=      5-min Rain = 0
KVP1 241723Z 31007KT 17/07 A2998 RMK A01 T01720071  RH  051%=      5-min Rain = 0
KVP1 241724Z 31007KT 17/07 A2998 RMK A01 T01710065  RH  050%=      5-min Rain = 0
KVP1 241725Z 30004KT 17/07 A2998 RMK A01 T01680067  RH  051%=      5-min Rain = 0
KVP1 241726Z 32005KT 17/07 A2998 RMK A01 T01680073  RH  053%=      5-min Rain = 0
KVP1 241727Z 35007KT 17/07 A2998 RMK A01 T01690073  RH  053%=      5-min Rain = 0
KVP1 241728Z 35008KT 17/07 A2998 RMK A01 T01700073  RH  053%=      5-min Rain = 0
KVP1 241729Z 33010KT 17/08 A2998 RMK A01 T01710082  RH  056%=      5-min Rain = 0
KVP1 241730Z 33010KT 18/07 A2998 RMK A01 T01760074  RH  051%=      5-min Rain = 0
KVP1 241731Z 36007KT 18/07 A2998 RMK A01 T01750072  RH  051%=      5-min Rain = 0
KVP1 241732Z 36006KT 17/07 A2998 RMK A01 T01730072  RH  051%=      5-min Rain = 0
KVP1 241733Z 01005KT 18/08 A2998 RMK A01 T01750078  RH  053%=      5-min Rain = 0
KVP1 241734Z 03004KT 18/07 A2998 RMK A01 T01750069  RH  050%=      5-min Rain = 0
KVP1 241735Z 36003KT 17/07 A2998 RMK A01 T01730074  RH  052%=      5-min Rain = 0
KVP1 241736Z 32006KT 17/07 A2998 RMK A01 T01730072  RH  052%=      5-min Rain = 0
KVP1 241737Z 34007G12KT 17/08 A2998 RMK A01 T01730077  RH  053%=      5-min Rain = 0
KVP1 241738Z 34007KT 17/07 A2998 RMK A01 T01730072  RH  051%=      5-min Rain = 0
KVP1 241739Z 35007KT 17/07 A2998 RMK A01 T01720073  RH  052%=      5-min Rain = 0
KVP1 241740Z 34005KT 17/07 A2998 RMK A01 T01710071  RH  052%=      5-min Rain = 0
KVP1 241741Z 31007KT 17/07 A2998 RMK A01 T01700073  RH  053%=      5-min Rain = 0
KVP1 241742Z 29004KT 17/07 A2998 RMK A01 T01710070  RH  051%=      5-min Rain = 0
KVP1 241743Z 33006KT 17/07 A2998 RMK A01 T01720071  RH  052%=      5-min Rain = 0
KVP1 241744Z 32009KT 17/08 A2998 RMK A01 T01730077  RH  053%=      5-min Rain = 0
KVP1 241745Z 31010KT 18/08 A2998 RMK A01 T01750077  RH  052%=      5-min Rain = 0
KVP1 241746Z 30008KT 18/07 A2998 RMK A01 T01750070  RH  050%=      5-min Rain = 0
KVP1 241747Z 29006KT 17/07 A2998 RMK A01 T01720070  RH  051%=      5-min Rain = 0
KVP1 241748Z 29005KT 17/07 A2998 RMK A01 T01710072  RH  052%=      5-min Rain = 0
KVP1 241749Z 31005KT 17/07 A2998 RMK A01 T01710072  RH  052%=      5-min Rain = 0
KVP1 241750Z 35007KT 17/07 A2998 RMK A01 T01720073  RH  052%=      5-min Rain = 0
KVP1 241751Z 01005KT 17/07 A2998 RMK A01 T01710070  RH  051%=      5-min Rain = 0
KVP1 241752Z 02004KT 17/07 A2998 RMK A01 T01710073  RH  053%=      5-min Rain = 0
KVP1 241753Z 01004KT 17/07 A2998 RMK A01 T01700067  RH  051%=      5-min Rain = 0
KVP1 241754Z 34005KT 17/07 A2998 RMK A01 T01700074  RH  053%=      5-min Rain = 0
KVP1 241755Z 32006KT 17/07 A2998 RMK A01 T01710073  RH  052%=      5-min Rain = 0
KVP1 241756Z 31006KT 17/07 A2998 RMK A01 T01730073  RH  052%=      5-min Rain = 0
KVP1 241757Z 35005KT 17/07 A2997 RMK A01 T01730072  RH  051%=      5-min Rain = 0
KVP1 241758Z 02005KT 17/07 A2997 RMK A01 T01730070  RH  051%=      5-min Rain = 0
KVP1 241759Z 03006KT 17/08 A2997 RMK A01 T01720075  RH  053%=      5-min Rain = 0
KVP1 241800Z 00004KT 17/07 A2997 RMK A01 T01730071  RH  051%=      5-min Rain = 0
KVP1 241801Z 35006KT 17/07 A2997 RMK A01 T01730072  RH  051%=      5-min Rain = 0
KVP1 241802Z 34006KT 17/07 A2997 RMK A01 T01730074  RH  052%=      5-min Rain = 0
KVP1 241803Z 34006KT 17/07 A2997 RMK A01 T01740074  RH  052%=      5-min Rain = 0
KVP1 241804Z 33006KT 18/08 A2997 RMK A01 T01750078  RH  053%=      5-min Rain = 0
KVP1 241805Z 33004KT 18/07 A2997 RMK A01 T01760070  RH  050%=      5-min Rain = 0
KVP1 241806Z 34007G12KT 18/08 A2997 RMK A01 T01750080  RH  054%=      5-min Rain = 0
KVP1 241807Z 34009KT 18/08 A2997 RMK A01 T01790079  RH  052%=      5-min Rain = 0
KVP1 241808Z 35006KT 18/07 A2997 RMK A01 T01770070  RH  050%=      5-min Rain = 0
KVP1 241809Z 34005KT 17/07 A2997 RMK A01 T01730069  RH  050%=      5-min Rain = 0
KVP1 241810Z 34004KT 17/07 A2997 RMK A01 T01720070  RH  051%=      5-min Rain = 0
KVP1 241811Z 32002KT 17/07 A2997 RMK A01 T01730070  RH  051%=      5-min Rain = 0
KVP1 241812Z 24002KT 17/07 A2997 RMK A01 T01730070  RH  051%=      5-min Rain = 0
KVP1 241813Z 22004KT 18/07 A2997 RMK A01 T01750072  RH  051%=      5-min Rain = 0
KVP1 241814Z 24002KT 18/08 A2997 RMK A01 T01770076  RH  052%=      5-min Rain = 0
KVP1 241815Z 33007KT 18/08 A2997 RMK A01 T01790082  RH  053%=      5-min Rain = 0
KVP1 241816Z 35005KT 18/09 A2997 RMK A01 T01840085  RH  053%=      5-min Rain = 0
KVP1 241817Z 31005KT 18/08 A2997 RMK A01 T01840076  RH  049%=      5-min Rain = 0
KVP1 241818Z 32006KT 18/08 A2997 RMK A01 T01820078  RH  051%=      5-min Rain = 0
KVP1 241819Z 30006KT 18/08 A2997 RMK A01 T01820076  RH  050%=      5-min Rain = 0
KVP1 241820Z 32005KT 18/07 A2997 RMK A01 T01800072  RH  049%=      5-min Rain = 0
KVP1 241821Z 34003KT 18/07 A2997 RMK A01 T01780070  RH  049%=      5-min Rain = 0
KVP1 241822Z 35005KT 18/08 A2997 RMK A01 T01780079  RH  052%=      5-min Rain = 0
KVP1 241823Z 32002KT 18/07 A2997 RMK A01 T01780068  RH  048%=      5-min Rain = 0
KVP1 241824Z 35005KT 18/07 A2997 RMK A01 T01770072  RH  050%=      5-min Rain = 0
KVP1 241825Z 04002KT 18/07 A2997 RMK A01 T01760068  RH  049%=      5-min Rain = 0
KVP1 241826Z 02003KT 18/07 A2996 RMK A01 T01760072  RH  050%=      5-min Rain = 0
KVP1 241827Z 03006KT 18/07 A2996 RMK A01 T01770074  RH  051%=      5-min Rain = 0
KVP1 241828Z 05005KT 18/07 A2996 RMK A01 T01780073  RH  050%=      5-min Rain = 0
KVP1 241829Z 05004KT 18/07 A2996 RMK A01 T01770067  RH  048%=      5-min Rain = 0
KVP1 241830Z 05003KT 18/07 A2996 RMK A01 T01760068  RH  049%=      5-min Rain = 0
KVP1 241831Z 01003KT 18/07 A2996 RMK A01 T01750068  RH  050%=      5-min Rain = 0
KVP1 241832Z 35004KT 18/08 A2996 RMK A01 T01760079  RH  053%=      5-min Rain = 0
KVP1 241833Z 02004KT 18/07 A2996 RMK A01 T01790074  RH  050%=      5-min Rain = 0
KVP1 241834Z 02004KT 18/07 A2996 RMK A01 T01780073  RH  050%=      5-min Rain = 0
KVP1 241835Z 04002KT 18/07 A2996 RMK A01 T01770070  RH  050%=      5-min Rain = 0
KVP1 241836Z 05001KT 18/08 A2996 RMK A01 T01760075  RH  051%=      5-min Rain = 0
KVP1 241837Z 28003KT 18/08 A2996 RMK A01 T01770075  RH  051%=      5-min Rain = 0
KVP1 241838Z 28005KT 18/09 A2996 RMK A01 T01810086  RH  054%=      5-min Rain = 0
KVP1 241839Z 26005KT 19/08 A2996 RMK A01 T01850080  RH  050%=      5-min Rain = 0
KVP1 241840Z 26005KT 19/08 A2996 RMK A01 T01850082  RH  051%=      5-min Rain = 0
KVP1 241841Z 24005KT 19/08 A2996 RMK A01 T01860082  RH  051%=      5-min Rain = 0
KVP1 241842Z 25006KT 19/08 A2996 RMK A01 T01870078  RH  049%=      5-min Rain = 0
KVP1 241843Z 27008KT 19/08 A2996 RMK A01 T01870082  RH  051%=      5-min Rain = 0
KVP1 241844Z 27004KT 19/08 A2996 RMK A01 T01870076  RH  048%=      5-min Rain = 0
KVP1 241845Z 24006KT 18/08 A2996 RMK A01 T01840075  RH  049%=      5-min Rain = 0
KVP1 241846Z 26004G9KT 18/08 A2996 RMK A01 T01830076  RH  049%=      5-min Rain = 0
KVP1 241847Z 30009KT 18/08 A2996 RMK A01 T01830080  RH  051%=      5-min Rain = 0
KVP1 241848Z 32009KT 18/08 A2996 RMK A01 T01840078  RH  050%=      5-min Rain = 0
KVP1 241849Z 34006KT 18/08 A2996 RMK A01 T01840078  RH  050%=      5-min Rain = 0
KVP1 241850Z 34005KT 18/08 A2996 RMK A01 T01840082  RH  051%=      5-min Rain = 0
KVP1 241851Z 34005KT 19/08 A2996 RMK A01 T01870084  RH  051%=      5-min Rain = 0
KVP1 241852Z 33003KT 19/08 A2996 RMK A01 T01870075  RH  048%=      5-min Rain = 0
KVP1 241853Z 33007KT 19/08 A2995 RMK A01 T01860081  RH  050%=      5-min Rain = 0
KVP1 241854Z 34005KT 19/08 A2995 RMK A01 T01860084  RH  051%=      5-min Rain = 0
KVP1 241855Z 33006G12KT 19/08 A2995 RMK A01 T01880083  RH  051%=      5-min Rain = 0
KVP1 241856Z 32010KT 19/08 A2995 RMK A01 T01890083  RH  050%=      5-min Rain = 0
KVP1 241857Z 33007KT 19/08 A2995 RMK A01 T01880080  RH  049%=      5-min Rain = 0
KVP1 241858Z 32011KT 19/09 A2995 RMK A01 T01870085  RH  051%=      5-min Rain = 0
KVP1 241859Z 32008KT 19/08 A2995 RMK A01 T01880083  RH  051%=      5-min Rain = 0
KVP1 241900Z 31009KT 19/08 A2995 RMK A01 T01880083  RH  050%=      5-min Rain = 0
KVP1 241901Z 30007KT 19/08 A2995 RMK A01 T01870083  RH  051%=      5-min Rain = 0
KVP1 241902Z 32004KT 19/08 A2995 RMK A01 T01870078  RH  049%=      5-min Rain = 0
KVP1 241903Z 30003KT 19/08 A2995 RMK A01 T01860084  RH  051%=      5-min Rain = 0
KVP1 241904Z 29008KT 19/09 A2995 RMK A01 T01910092  RH  053%=      5-min Rain = 0
KVP1 241905Z 29007KT 19/08 A2995 RMK A01 T01940081  RH  048%=      5-min Rain = 0
KVP1 241906Z 29006KT 19/08 A2995 RMK A01 T01910081  RH  049%=      5-min Rain = 0
KVP1 241907Z 31006KT 19/08 A2995 RMK A01 T01900083  RH  050%=      5-min Rain = 0
KVP1 241908Z 30008KT 19/09 A2995 RMK A01 T01900087  RH  051%=      5-min Rain = 0
KVP1 241909Z 28005KT 19/08 A2995 RMK A01 T01930081  RH  048%=      5-min Rain = 0
KVP1 241910Z 24004KT 19/08 A2995 RMK A01 T01920082  RH  049%=      5-min Rain = 0
KVP1 241911Z 27005KT 19/08 A2995 RMK A01 T01900081  RH  049%=      5-min Rain = 0
KVP1 241912Z 30009KT 19/08 A2995 RMK A01 T01900081  RH  049%=      5-min Rain = 0
KVP1 241913Z 30006KT 19/08 A2995 RMK A01 T01900076  RH  047%=      5-min Rain = 0
KVP1 241914Z 31006KT 19/08 A2995 RMK A01 T01890078  RH  048%=      5-min Rain = 0
KVP1 241915Z 33009G14KT 19/08 A2995 RMK A01 T01890084  RH  050%=      5-min Rain = 0
KVP1 241916Z 32005KT 19/08 A2995 RMK A01 T01910078  RH  048%=      5-min Rain = 0
KVP1 241917Z 32008KT 19/08 A2995 RMK A01 T01890083  RH  050%=      5-min Rain = 0
KVP1 241918Z 32008KT 19/09 A2995 RMK A01 T01910085  RH  050%=      5-min Rain = 0
KVP1 241919Z 33007KT 19/08 A2995 RMK A01 T01940083  RH  049%=      5-min Rain = 0
KVP1 241920Z 33007KT 19/08 A2995 RMK A01 T01940083  RH  049%=      5-min Rain = 0
KVP1 241921Z 32007KT 19/09 A2995 RMK A01 T01930086  RH  050%=      5-min Rain = 0
KVP1 241922Z 29007KT 19/09 A2995 RMK A01 T01930085  RH  050%=      5-min Rain = 0
KVP1 241923Z 29005KT 19/08 A2995 RMK A01 T01920081  RH  048%=      5-min Rain = 0
KVP1 241924Z 27007KT 19/09 A2994 RMK A01 T01920085  RH  050%=      5-min Rain = 0
KVP1 241925Z 25006KT 19/08 A2994 RMK A01 T01920080  RH  048%=      5-min Rain = 0
KVP1 241926Z 25005KT 19/08 A2994 RMK A01 T01910082  RH  049%=      5-min Rain = 0
KVP1 241927Z 26005KT 19/09 A2994 RMK A01 T01910085  RH  050%=      5-min Rain = 0
KVP1 241928Z 26003KT 19/08 A2994 RMK A01 T01920079  RH  048%=      5-min Rain = 0
KVP1 241929Z 24004KT 19/08 A2994 RMK A01 T01910078  RH  048%=      5-min Rain = 0
KVP1 241930Z 25006KT 19/09 A2994 RMK A01 T01910086  RH  051%=      5-min Rain = 0
KVP1 241931Z 25004KT 19/08 A2994 RMK A01 T01920079  RH  048%=      5-min Rain = 0
KVP1 241932Z 29004KT 19/08 A2994 RMK A01 T01910079  RH  048%=      5-min Rain = 0
KVP1 241933Z 30007KT 19/08 A2994 RMK A01 T01900081  RH  049%=      5-min Rain = 0
KVP1 241934Z 31006KT 19/08 A2994 RMK A01 T01890078  RH  048%=      5-min Rain = 0
KVP1 241935Z 33002KT 19/08 A2994 RMK A01 T01880079  RH  049%=      5-min Rain = 0
KVP1 241936Z 34002KT 19/08 A2994 RMK A01 T01880077  RH  048%=      5-min Rain = 0
KVP1 241937Z 33004KT 19/08 A2994 RMK A01 T01890081  RH  050%=      5-min Rain = 0
KVP1 241938Z 28005KT 19/09 A2993 RMK A01 T01910087  RH  051%=      5-min Rain = 0
KVP1 241939Z 31009KT 20/08 A2993 RMK A01 T01950084  RH  049%=      5-min Rain = 0
KVP1 241940Z 32008KT 20/09 A2994 RMK A01 T01960085  RH  049%=      5-min Rain = 0
KVP1 241941Z 33007KT 20/09 A2993 RMK A01 T01970091  RH  050%=      5-min Rain = 0
KVP1 241942Z 34005KT 20/09 A2993 RMK A01 T01990091  RH  049%=      5-min Rain = 0
KVP1 241943Z 00004KT 20/09 A2993 RMK A01 T02000086  RH  048%=      5-min Rain = 0
KVP1 241944Z 34006KT 20/09 A2993 RMK A01 T01990086  RH  048%=      5-min Rain = 0
KVP1 241945Z 34007KT 20/09 A2993 RMK A01 T01980088  RH  049%=      5-min Rain = 0
KVP1 241946Z 35008KT 20/09 A2993 RMK A01 T01980087  RH  049%=      5-min Rain = 0
KVP1 241947Z 35006KT 20/09 A2993 RMK A01 T01970086  RH  048%=      5-min Rain = 0
KVP1 241948Z 33006KT 20/09 A2993 RMK A01 T01970088  RH  049%=      5-min Rain = 0
KVP1 241949Z 27005KT 20/09 A2993 RMK A01 T01980085  RH  048%=      5-min Rain = 0
KVP1 241950Z 30003KT 20/09 A2993 RMK A01 T01980087  RH  049%=      5-min Rain = 0
KVP1 241951Z 29004KT 20/08 A2993 RMK A01 T02000082  RH  046%=      5-min Rain = 0
KVP1 241952Z 30003KT 20/08 A2993 RMK A01 T01990081  RH  046%=      5-min Rain = 0
KVP1 241953Z 30001KT 20/08 A2993 RMK A01 T01970082  RH  047%=      5-min Rain = 0
KVP1 241954Z 24001KT 20/08 A2993 RMK A01 T01970079  RH  046%=      5-min Rain = 0
KVP1 241955Z 30001KT 20/08 A2993 RMK A01 T01980080  RH  046%=      5-min Rain = 0
KVP1 241956Z 31003KT 20/08 A2993 RMK A01 T01990083  RH  047%=      5-min Rain = 0
KVP1 241957Z 34004KT 20/08 A2993 RMK A01 T01990081  RH  047%=      5-min Rain = 0
KVP1 241958Z 34003KT 20/08 A2993 RMK A01 T01980083  RH  047%=      5-min Rain = 0
KVP1 241959Z 30005KT 20/09 A2993 RMK A01 T01980085  RH  048%=      5-min Rain = 0
KVP1 242000Z 30006G12KT 20/09 A2993 RMK A01 T02000092  RH  049%=      5-min Rain = 0
KVP1 242001Z 32010G17KT 20/09 A2993 RMK A01 T02040090  RH  048%=      5-min Rain = 0
KVP1 242002Z 29007G13KT 21/08 A2993 RMK A01 T02050084  RH  046%=      5-min Rain = 0
KVP1 242003Z 31004KT 20/09 A2993 RMK A01 T02030087  RH  047%=      5-min Rain = 0
KVP1 242004Z 33005KT 20/09 A2993 RMK A01 T02030086  RH  047%=      5-min Rain = 0
KVP1 242005Z 33007KT 20/09 A2993 RMK A01 T02030087  RH  047%=      5-min Rain = 0
KVP1 242006Z 32007KT 20/09 A2993 RMK A01 T02030086  RH  047%=      5-min Rain = 0
KVP1 242007Z 31005KT 20/09 A2993 RMK A01 T02020086  RH  047%=      5-min Rain = 0
KVP1 242008Z 31006KT 20/09 A2993 RMK A01 T02020087  RH  047%=      5-min Rain = 0
KVP1 242009Z 32006KT 20/08 A2993 RMK A01 T02010083  RH  047%=      5-min Rain = 0
KVP1 242010Z 29005KT 20/09 A2993 RMK A01 T02000090  RH  049%=      5-min Rain = 0
KVP1 242011Z 28004KT 20/09 A2992 RMK A01 T02030092  RH  049%=      5-min Rain = 0
KVP1 242012Z 27008KT 21/09 A2992 RMK A01 T02070087  RH  046%=      5-min Rain = 0
KVP1 242013Z 28010KT 21/08 A2992 RMK A01 T02070083  RH  045%=      5-min Rain = 0
KVP1 242014Z 28007KT 21/08 A2992 RMK A01 T02060081  RH  045%=      5-min Rain = 0
KVP1 242015Z 27008KT 21/08 A2992 RMK A01 T02050084  RH  046%=      5-min Rain = 0
KVP1 242016Z 29007KT 21/08 A2992 RMK A01 T02050083  RH  045%=      5-min Rain = 0
KVP1 242017Z 31008KT 21/08 A2992 RMK A01 T02050081  RH  045%=      5-min Rain = 0
KVP1 242018Z 31006KT 20/08 A2993 RMK A01 T02030077  RH  044%=      5-min Rain = 0
KVP1 242019Z 33004KT 20/07 A2992 RMK A01 T01980074  RH  045%=      5-min Rain = 0
KVP1 242020Z 33003KT 19/08 A2992 RMK A01 T01940075  RH  046%=      5-min Rain = 0
KVP1 242021Z 33003KT 19/07 A2992 RMK A01 T01910074  RH  047%=      5-min Rain = 0
KVP1 242022Z 35003KT 19/07 A2992 RMK A01 T01890074  RH  047%=      5-min Rain = 0
KVP1 242023Z 30004G9KT 19/08 A2992 RMK A01 T01890080  RH  049%=      5-min Rain = 0
KVP1 242024Z 29008KT 19/08 A2992 RMK A01 T01940079  RH  047%=      5-min Rain = 0
KVP1 242025Z 30007G12KT 20/07 A2992 RMK A01 T01970074  RH  045%=      5-min Rain = 0
KVP1 242026Z 29006KT 20/07 A2992 RMK A01 T01990073  RH  044%=      5-min Rain = 0
KVP1 242027Z 30005KT 20/08 A2992 RMK A01 T01990076  RH  045%=      5-min Rain = 0
KVP1 242028Z 31005KT 20/07 A2992 RMK A01 T02000073  RH  044%=      5-min Rain = 0
KVP1 242029Z 33002KT 20/07 A2992 RMK A01 T02000073  RH  044%=      5-min Rain = 0
KVP1 242030Z 02002KT 20/08 A2992 RMK A01 T01990078  RH  045%=      5-min Rain = 0
KVP1 242031Z 01002KT 20/08 A2992 RMK A01 T02000075  RH  044%=      5-min Rain = 0
KVP1 242032Z 28003KT 20/08 A2992 RMK A01 T02000077  RH  045%=      5-min Rain = 0
KVP1 242033Z 22004G9KT 20/08 A2992 RMK A01 T02000076  RH  045%=      5-min Rain = 0
KVP1 242034Z 27010KT 20/09 A2991 RMK A01 T02030088  RH  047%=      5-min Rain = 0
KVP1 242035Z 29009KT 21/08 A2991 RMK A01 T02060081  RH  044%=      5-min Rain = 0
KVP1 242036Z 29007KT 21/08 A2991 RMK A01 T02070080  RH  044%=      5-min Rain = 0
KVP1 242037Z 29006KT 21/07 A2991 RMK A01 T02050074  RH  042%=      5-min Rain = 0
KVP1 242038Z 27008KT 20/08 A2991 RMK A01 T02030076  RH  044%=      5-min Rain = 0
KVP1 242039Z 27006KT 20/08 A2991 RMK A01 T02020075  RH  044%=      5-min Rain = 0
KVP1 242040Z 26007KT 20/07 A2991 RMK A01 T02010074  RH  044%=      5-min Rain = 0
KVP1 242041Z 26005KT 20/07 A2991 RMK A01 T02010074  RH  044%=      5-min Rain = 0
KVP1 242042Z 31004KT 20/08 A2991 RMK A01 T02000076  RH  045%=      5-min Rain = 0
KVP1 242043Z 34004KT 20/08 A2991 RMK A01 T02010080  RH  046%=      5-min Rain = 0
KVP1 242044Z 35004KT 20/08 A2991 RMK A01 T02030081  RH  046%=      5-min Rain = 0
KVP1 242045Z 28007KT 20/08 A2991 RMK A01 T02040084  RH  046%=      5-min Rain = 0
KVP1 242046Z 29008KT 21/08 A2991 RMK A01 T02060082  RH  045%=      5-min Rain = 0
KVP1 242047Z 31010KT 21/09 A2991 RMK A01 T02080086  RH  045%=      5-min Rain = 0
KVP1 242048Z 29009KT 21/08 A2991 RMK A01 T02100079  RH  043%=      5-min Rain = 0
KVP1 242049Z 29005KT 21/07 A2991 RMK A01 T02070071  RH  041%=      5-min Rain = 0
KVP1 242050Z 31004KT 20/08 A2991 RMK A01 T02040077  RH  044%=      5-min Rain = 0
KVP1 242051Z 33003KT 20/08 A2991 RMK A01 T02040076  RH  044%=      5-min Rain = 0
KVP1 242052Z 36003KT 20/08 A2991 RMK A01 T02030078  RH  044%=      5-min Rain = 0
KVP1 242053Z 29002KT 20/07 A2991 RMK A01 T02040072  RH  043%=      5-min Rain = 0
KVP1 242054Z 27005KT 20/07 A2991 RMK A01 T02030066  RH  041%=      5-min Rain = 0
KVP1 242055Z 30002KT 20/06 A2991 RMK A01 T02020064  RH  041%=      5-min Rain = 0
KVP1 242056Z 26003KT 20/08 A2991 RMK A01 T02010076  RH  044%=      5-min Rain = 0
KVP1 242057Z 27007KT 21/08 A2991 RMK A01 T02050078  RH  044%=      5-min Rain = 0
KVP1 242058Z 28007KT 21/07 A2991 RMK A01 T02080072  RH  041%=      5-min Rain = 0
KVP1 242059Z 28005KT 21/07 A2991 RMK A01 T02070068  RH  040%=      5-min Rain = 0
KVP1 242100Z 25004KT 21/07 A2991 RMK A01 T02050065  RH  040%=      5-min Rain = 0
KVP1 242101Z 24005KT 20/07 A2991 RMK A01 T02040066  RH  041%=      5-min Rain = 0
KVP1 242102Z 23002KT 20/06 A2991 RMK A01 T02040063  RH  040%=      5-min Rain = 0
KVP1 242103Z 21003KT 20/07 A2991 RMK A01 T02040070  RH  042%=      5-min Rain = 0
KVP1 242104Z 18002KT 20/07 A2991 RMK A01 T02040070  RH  042%=      5-min Rain = 0
KVP1 242105Z 23003KT 20/08 A2991 RMK A01 T02040078  RH  044%=      5-min Rain = 0
KVP1 242106Z 25004KT 21/07 A299 RMK A01 T02060073  RH  042%=      5-min Rain = 0
KVP1 242107Z 24004KT 21/07 A299 RMK A01 T02070072  RH  042%=      5-min Rain = 0
KVP1 242108Z 23002KT 21/07 A299 RMK A01 T02070068  RH  041%=      5-min Rain = 0
KVP1 242109Z 20004KT 21/08 A299 RMK A01 T02060078  RH  044%=      5-min Rain = 0
KVP1 242110Z 26004KT 21/07 A299 RMK A01 T02050073  RH  042%=      5-min Rain = 0
KVP1 242111Z 29006KT 20/08 A299 RMK A01 T02030076  RH  044%=      5-min Rain = 0
KVP1 242112Z 29009KT 20/08 A299 RMK A01 T02010075  RH  044%=      5-min Rain = 0
KVP1 242113Z 30009KT 20/07 A299 RMK A01 T01990073  RH  044%=      5-min Rain = 0
KVP1 242114Z 31009KT 20/07 A299 RMK A01 T01970074  RH  045%=      5-min Rain = 0
KVP1 242115Z 31010KT 20/07 A299 RMK A01 T01960074  RH  045%=      5-min Rain = 0
KVP1 242116Z 31009KT 20/08 A299 RMK A01 T01950075  RH  046%=      5-min Rain = 0
KVP1 242117Z 31010KT 20/08 A299 RMK A01 T01950075  RH  046%=      5-min Rain = 0
KVP1 242118Z 30009KT 19/07 A299 RMK A01 T01940074  RH  046%=      5-min Rain = 0
KVP1 242119Z 30007KT 19/08 A299 RMK A01 T01940076  RH  046%=      5-min Rain = 0
KVP1 242120Z 30005KT 19/08 A299 RMK A01 T01940075  RH  046%=      5-min Rain = 0
KVP1 242121Z 30003KT 19/07 A299 RMK A01 T01940070  RH  045%=      5-min Rain = 0
KVP1 242122Z 29003KT 19/07 A299 RMK A01 T01940072  RH  045%=      5-min Rain = 0
KVP1 242123Z 26002KT 19/08 A299 RMK A01 T01940075  RH  046%=      5-min Rain = 0
KVP1 242124Z 27001KT 19/07 A299 RMK A01 T01940073  RH  045%=      5-min Rain = 0
KVP1 242125Z 33002KT 19/07 A299 RMK A01 T01940074  RH  046%=      5-min Rain = 0
KVP1 242126Z 35002KT 20/07 A299 RMK A01 T01950072  RH  045%=      5-min Rain = 0
KVP1 242127Z 04002KT 19/07 A299 RMK A01 T01940073  RH  045%=      5-min Rain = 0
KVP1 242128Z 11002KT 19/07 A299 RMK A01 T01940072  RH  045%=      5-min Rain = 0
KVP1 242129Z 12002KT 20/07 A299 RMK A01 T01950074  RH  046%=      5-min Rain = 0
KVP1 242130Z 06001KT 20/07 A299 RMK A01 T01980071  RH  044%=      5-min Rain = 0
KVP1 242131Z 10001KT 20/07 A299 RMK A01 T01990069  RH  043%=      5-min Rain = 0
KVP1 242132Z 07000KT 20/07 A299 RMK A01 T02000067  RH  042%=      5-min Rain = 0
KVP1 242133Z 23003KT 20/07 A299 RMK A01 T02020071  RH  043%=      5-min Rain = 0
KVP1 242134Z 25006KT 21/08 A2989 RMK A01 T02050077  RH  043%=      5-min Rain = 0
KVP1 242135Z 25007KT 21/07 A2989 RMK A01 T02070070  RH  041%=      5-min Rain = 0
KVP1 242136Z 26005KT 21/08 A2989 RMK A01 T02070075  RH  042%=      5-min Rain = 0
KVP1 242137Z 24004KT 21/07 A2989 RMK A01 T02070072  RH  041%=      5-min Rain = 0
KVP1 242138Z 20002KT 21/08 A2989 RMK A01 T02070075  RH  042%=      5-min Rain = 0
KVP1 242139Z 30003G8KT 21/07 A2989 RMK A01 T02080072  RH  041%=      5-min Rain = 0
KVP1 242140Z 28008KT 21/07 A2989 RMK A01 T02090070  RH  040%=      5-min Rain = 0
KVP1 242141Z 25005KT 21/07 A2989 RMK A01 T02100070  RH  040%=      5-min Rain = 0
KVP1 242142Z 22002KT 21/07 A2989 RMK A01 T02100066  RH  039%=      5-min Rain = 0
KVP1 242143Z 28003KT 21/07 A2989 RMK A01 T02090069  RH  040%=      5-min Rain = 0
KVP1 242144Z 26008KT 21/07 A2989 RMK A01 T02100070  RH  040%=      5-min Rain = 0
KVP1 242145Z 27009KT 21/07 A2989 RMK A01 T02110074  RH  041%=      5-min Rain = 0
KVP1 242146Z 28007KT 21/07 A2989 RMK A01 T02120072  RH  040%=      5-min Rain = 0
KVP1 242147Z 29008KT 21/07 A2989 RMK A01 T02100074  RH  041%=      5-min Rain = 0
KVP1 242148Z 26006KT 21/08 A2988 RMK A01 T02090076  RH  042%=      5-min Rain = 0
KVP1 242149Z 25007KT 21/08 A2988 RMK A01 T02080080  RH  043%=      5-min Rain = 0
KVP1 242150Z 30008KT 21/08 A2988 RMK A01 T02100077  RH  042%=      5-min Rain = 0
KVP1 242151Z 30007KT 21/07 A2988 RMK A01 T02090073  RH  041%=      5-min Rain = 0
KVP1 242152Z 30007KT 21/07 A2988 RMK A01 T02070069  RH  041%=      5-min Rain = 0
KVP1 242153Z 28006KT 21/07 A2988 RMK A01 T02050072  RH  042%=      5-min Rain = 0
KVP1 242154Z 26006KT 21/07 A2988 RMK A01 T02060071  RH  042%=      5-min Rain = 0
KVP1 242155Z 25005KT 21/07 A2988 RMK A01 T02060067  RH  040%=      5-min Rain = 0
KVP1 242156Z 24003KT 21/07 A2988 RMK A01 T02060068  RH  041%=      5-min Rain = 0
KVP1 242157Z 23004KT 21/08 A2988 RMK A01 T02070075  RH  043%=      5-min Rain = 0
KVP1 242158Z 26004KT 21/07 A2988 RMK A01 T02090072  RH  041%=      5-min Rain = 0
KVP1 242159Z 32006KT 21/07 A2988 RMK A01 T02110073  RH  041%=      5-min Rain = 0
KVP1 242200Z 32003KT 21/07 A2988 RMK A01 T02110065  RH  039%=      5-min Rain = 0
KVP1 242201Z 30007KT 21/07 A2988 RMK A01 T02110068  RH  040%=      5-min Rain = 0
KVP1 242202Z 31009KT 21/07 A2988 RMK A01 T02110071  RH  040%=      5-min Rain = 0
KVP1 242203Z 32008KT 21/06 A2988 RMK A01 T02130063  RH  038%=      5-min Rain = 0
KVP1 242204Z 33006KT 21/06 A2988 RMK A01 T02120062  RH  038%=      5-min Rain = 0
KVP1 242205Z 32006KT 21/07 A2988 RMK A01 T02100065  RH  039%=      5-min Rain = 0
KVP1 242206Z 29008KT 21/07 A2988 RMK A01 T02100067  RH  039%=      5-min Rain = 0
KVP1 242207Z 28006KT 21/07 A2988 RMK A01 T02100067  RH  039%=      5-min Rain = 0
KVP1 242208Z 28010KT 21/07 A2988 RMK A01 T02110072  RH  041%=      5-min Rain = 0
KVP1 242209Z 29007KT 21/07 A2988 RMK A01 T02120072  RH  040%=      5-min Rain = 0
KVP1 242210Z 28006KT 21/08 A2988 RMK A01 T02120077  RH  042%=      5-min Rain = 0
KVP1 242211Z 28007KT 21/08 A2988 RMK A01 T02140079  RH  042%=      5-min Rain = 0
KVP1 242212Z 29007KT 22/07 A2988 RMK A01 T02150074  RH  040%=      5-min Rain = 0
KVP1 242213Z 26006KT 21/08 A2988 RMK A01 T02140076  RH  041%=      5-min Rain = 0
KVP1 242214Z 30007KT 21/08 A2988 RMK A01 T02140078  RH  042%=      5-min Rain = 0
KVP1 242215Z 29007KT 21/07 A2988 RMK A01 T02140074  RH  040%=      5-min Rain = 0
KVP1 242216Z 29008KT 21/07 A2988 RMK A01 T02130073  RH  040%=      5-min Rain = 0
KVP1 242217Z 30005KT 21/07 A2988 RMK A01 T02110073  RH  041%=      5-min Rain = 0
KVP1 242218Z 29004KT 21/07 A2988 RMK A01 T02110072  RH  041%=      5-min Rain = 0
KVP1 242219Z 31005KT 21/08 A2988 RMK A01 T02110078  RH  042%=      5-min Rain = 0
KVP1 242220Z 35008KT 21/08 A2988 RMK A01 T02140081  RH  043%=      5-min Rain = 0
KVP1 242221Z 34009KT 21/07 A2988 RMK A01 T02140074  RH  041%=      5-min Rain = 0
KVP1 242222Z 33007KT 21/08 A2988 RMK A01 T02110076  RH  042%=      5-min Rain = 0
KVP1 242223Z 33007KT 21/07 A2988 RMK A01 T02100073  RH  041%=      5-min Rain = 0
KVP1 242224Z 31006KT 21/08 A2988 RMK A01 T02080075  RH  042%=      5-min Rain = 0
KVP1 242225Z 31005KT 21/07 A2988 RMK A01 T02070072  RH  042%=      5-min Rain = 0
KVP1 242226Z 31004KT 21/07 A2988 RMK A01 T02060068  RH  041%=      5-min Rain = 0
KVP1 242227Z 30002KT 21/07 A2988 RMK A01 T02060070  RH  041%=      5-min Rain = 0
KVP1 242228Z 36001KT 21/07 A2988 RMK A01 T02060069  RH  041%=      5-min Rain = 0
KVP1 242229Z 03005KT 21/07 A2988 RMK A01 T02070072  RH  041%=      5-min Rain = 0
KVP1 242230Z 02003KT 21/07 A2988 RMK A01 T02070069  RH  041%=      5-min Rain = 0
KVP1 242231Z 02004KT 21/07 A2988 RMK A01 T02070074  RH  042%=      5-min Rain = 0
KVP1 242232Z 00005KT 21/08 A2988 RMK A01 T02080076  RH  042%=      5-min Rain = 0
KVP1 242233Z 01005KT 21/08 A2988 RMK A01 T02090075  RH  042%=      5-min Rain = 0
KVP1 242234Z 06003KT 21/08 A2988 RMK A01 T02090077  RH  043%=      5-min Rain = 0
KVP1 242235Z 06002KT 21/07 A2988 RMK A01 T02080071  RH  041%=      5-min Rain = 0
KVP1 242236Z 07000KT 21/06 A2988 RMK A01 T02060064  RH  040%=      5-min Rain = 0
KVP1 242237Z 00000KT 21/06 A2988 RMK A01 T02050064  RH  040%=      5-min Rain = 0
KVP1 242238Z 24000KT 21/07 A2988 RMK A01 T02060068  RH  041%=      5-min Rain = 0
KVP1 242239Z 30002KT 21/07 A2988 RMK A01 T02090073  RH  042%=      5-min Rain = 0
KVP1 242240Z 29006KT 21/07 A2988 RMK A01 T02120073  RH  041%=      5-min Rain = 0
KVP1 242241Z 28008KT 21/07 A2988 RMK A01 T02130073  RH  040%=      5-min Rain = 0
KVP1 242242Z 28008KT 21/07 A2988 RMK A01 T02140072  RH  040%=      5-min Rain = 0
KVP1 242243Z 30007KT 21/07 A2988 RMK A01 T02140072  RH  040%=      5-min Rain = 0
KVP1 242244Z 30006KT 21/07 A2988 RMK A01 T02140069  RH  039%=      5-min Rain = 0
KVP1 242245Z 30007KT 21/07 A2988 RMK A01 T02120066  RH  039%=      5-min Rain = 0
KVP1 242246Z 31007KT 21/07 A2988 RMK A01 T02110067  RH  039%=      5-min Rain = 0
KVP1 242247Z 31004KT 21/07 A2988 RMK A01 T02120065  RH  038%=      5-min Rain = 0
KVP1 242248Z 28002KT 21/07 A2988 RMK A01 T02110065  RH  039%=      5-min Rain = 0
KVP1 242249Z 27003KT 21/07 A2988 RMK A01 T02120070  RH  040%=      5-min Rain = 0
KVP1 242250Z 29003KT 21/07 A2988 RMK A01 T02130068  RH  039%=      5-min Rain = 0
KVP1 242251Z 29006KT 21/07 A2988 RMK A01 T02140071  RH  040%=      5-min Rain = 0
KVP1 242252Z 30007KT 22/07 A2988 RMK A01 T02150069  RH  039%=      5-min Rain = 0
KVP1 242253Z 28007KT 22/07 A2988 RMK A01 T02150069  RH  039%=      5-min Rain = 0
KVP1 242254Z 28007KT 22/07 A2988 RMK A01 T02150072  RH  040%=      5-min Rain = 0
KVP1 242255Z 27007KT 22/07 A2988 RMK A01 T02160069  RH  039%=      5-min Rain = 0
KVP1 242256Z 26005KT 22/06 A2988 RMK A01 T02150063  RH  037%=      5-min Rain = 0
KVP1 242257Z 29004KT 21/07 A2988 RMK A01 T02130069  RH  039%=      5-min Rain = 0
KVP1 242258Z 26005KT 21/07 A2988 RMK A01 T02130067  RH  039%=      5-min Rain = 0
KVP1 242259Z 25005KT 21/07 A2988 RMK A01 T02130070  RH  040%=      5-min Rain = 0
KVP1 242300Z 31005KT 21/07 A2988 RMK A01 T02130069  RH  039%=      5-min Rain = 0
KVP1 242301Z 32003KT 21/07 A2988 RMK A01 T02130067  RH  039%=      5-min Rain = 0
KVP1 242302Z 31004KT 21/08 A2988 RMK A01 T02130076  RH  041%=      5-min Rain = 0
KVP1 242303Z 32007KT 21/08 A2988 RMK A01 T02130075  RH  041%=      5-min Rain = 0
KVP1 242304Z 33008KT 21/08 A2988 RMK A01 T02120075  RH  041%=      5-min Rain = 0
KVP1 242305Z 32007KT 21/07 A2988 RMK A01 T02100072  RH  041%=      5-min Rain = 0
KVP1 242306Z 33007KT 21/07 A2988 RMK A01 T02100071  RH  041%=      5-min Rain = 0
KVP1 242307Z 29006KT 21/07 A2988 RMK A01 T02100070  RH  041%=      5-min Rain = 0
KVP1 242308Z 27006KT 21/07 A2988 RMK A01 T02100066  RH  039%=      5-min Rain = 0
KVP1 242309Z 28005KT 21/07 A2988 RMK A01 T02100067  RH  039%=      5-min Rain = 0
KVP1 242310Z 29004KT 21/07 A2988 RMK A01 T02090068  RH  040%=      5-min Rain = 0
KVP1 242311Z 27003KT 21/07 A2988 RMK A01 T02100068  RH  040%=      5-min Rain = 0
KVP1 242312Z 27002KT 21/07 A2988 RMK A01 T02100068  RH  040%=      5-min Rain = 0
KVP1 242313Z 24003KT 21/07 A2988 RMK A01 T02090065  RH  039%=      5-min Rain = 0
KVP1 242314Z 25002KT 21/07 A2988 RMK A01 T02070069  RH  041%=      5-min Rain = 0
KVP1 242315Z 30002KT 21/07 A2988 RMK A01 T02060069  RH  041%=      5-min Rain = 0
KVP1 242316Z 30001KT 20/06 A2988 RMK A01 T02040064  RH  040%=      5-min Rain = 0
KVP1 242317Z 27001KT 21/07 A2988 RMK A01 T02060065  RH  040%=      5-min Rain = 0
KVP1 242318Z 27003KT 21/07 A2988 RMK A01 T02070070  RH  041%=      5-min Rain = 0
KVP1 242319Z 28004KT 21/07 A2988 RMK A01 T02090067  RH  040%=      5-min Rain = 0
KVP1 242320Z 33006KT 21/07 A2988 RMK A01 T02100073  RH  041%=      5-min Rain = 0
KVP1 242321Z 34007KT 21/08 A2988 RMK A01 T02120078  RH  042%=      5-min Rain = 0
KVP1 242322Z 35005KT 21/07 A2988 RMK A01 T02120069  RH  040%=      5-min Rain = 0
KVP1 242323Z 34003KT 21/07 A2988 RMK A01 T02110070  RH  040%=      5-min Rain = 0
KVP1 242324Z 35005KT 21/06 A2988 RMK A01 T02100064  RH  038%=      5-min Rain = 0
KVP1 242325Z 34008KT 21/07 A2988 RMK A01 T02100070  RH  040%=      5-min Rain = 0
KVP1 242326Z 33009KT 21/07 A2988 RMK A01 T02100072  RH  041%=      5-min Rain = 0
KVP1 242327Z 33009KT 21/07 A2988 RMK A01 T02110069  RH  040%=      5-min Rain = 0
KVP1 242328Z 33007KT 21/07 A2988 RMK A01 T02100072  RH  041%=      5-min Rain = 0
KVP1 242329Z 33008KT 21/07 A2988 RMK A01 T02110074  RH  041%=      5-min Rain = 0
KVP1 242330Z 33009KT 21/07 A2988 RMK A01 T02110073  RH  041%=      5-min Rain = 0
KVP1 242331Z 32007KT 21/07 A2988 RMK A01 T02110071  RH  040%=      5-min Rain = 0
KVP1 242332Z 33007KT 21/07 A2988 RMK A01 T02100070  RH  040%=      5-min Rain = 0
KVP1 242333Z 32007KT 21/07 A2988 RMK A01 T02100069  RH  040%=      5-min Rain = 0
KVP1 242334Z 33005KT 21/07 A2988 RMK A01 T02090070  RH  041%=      5-min Rain = 0
KVP1 242335Z 34007KT 21/07 A2988 RMK A01 T02070071  RH  041%=      5-min Rain = 0
KVP1 242336Z 34006KT 20/07 A2988 RMK A01 T02040070  RH  042%=      5-min Rain = 0
KVP1 242337Z 34005KT 20/07 A2988 RMK A01 T02010071  RH  043%=      5-min Rain = 0
KVP1 242338Z 33005KT 20/07 A2988 RMK A01 T02000071  RH  043%=      5-min Rain = 0
KVP1 242339Z 34007KT 20/07 A2988 RMK A01 T02000068  RH  042%=      5-min Rain = 0
KVP1 242340Z 34007KT 20/07 A2988 RMK A01 T02000072  RH  043%=      5-min Rain = 0
KVP1 242341Z 34007KT 20/07 A2988 RMK A01 T02000068  RH  042%=      5-min Rain = 0
KVP1 242342Z 34005KT 20/07 A2988 RMK A01 T01990068  RH  043%=      5-min Rain = 0
KVP1 242343Z 33005KT 20/07 A2988 RMK A01 T01990072  RH  044%=      5-min Rain = 0
KVP1 242344Z 33004KT 20/07 A2988 RMK A01 T02010074  RH  044%=      5-min Rain = 0
KVP1 242345Z 33004KT 20/07 A2988 RMK A01 T02030068  RH  042%=      5-min Rain = 0
KVP1 242346Z 33005KT 20/07 A2987 RMK A01 T02040068  RH  041%=      5-min Rain = 0
KVP1 242347Z 32005KT 20/06 A2987 RMK A01 T02040064  RH  040%=      5-min Rain = 0
KVP1 242348Z 31006KT 21/07 A2987 RMK A01 T02050068  RH  041%=      5-min Rain = 0
KVP1 242349Z 32004KT 21/07 A2987 RMK A01 T02050066  RH  040%=      5-min Rain = 0
KVP1 242350Z 33003KT 21/07 A2987 RMK A01 T02060066  RH  040%=      5-min Rain = 0
KVP1 242351Z 33002KT 21/07 A2987 RMK A01 T02060066  RH  040%=      5-min Rain = 0
KVP1 242352Z 30003KT 21/07 A2987 RMK A01 T02060066  RH  040%=      5-min Rain = 0
KVP1 242353Z 31001KT 21/07 A2987 RMK A01 T02070065  RH  040%=      5-min Rain = 0
KVP1 242354Z 33002KT 21/07 A2987 RMK A01 T02070065  RH  040%=      5-min Rain = 0
KVP1 242355Z 33003KT 21/07 A2987 RMK A01 T02070069  RH  041%=      5-min Rain = 0
KVP1 242356Z 31004KT 21/07 A2987 RMK A01 T02080070  RH  041%=      5-min Rain = 0
KVP1 242357Z 30003KT 21/07 A2987 RMK A01 T02080069  RH  041%=      5-min Rain = 0
KVP1 242358Z 31004KT 21/07 A2987 RMK A01 T02080069  RH  041%=      5-min Rain = 0
KVP1 242359Z 30004KT 21/07 A2987 RMK A01 T02080067  RH  040%=      5-min Rain = 0
KVP1 250000Z 32003KT 21/07 A2987 RMK A01 T02080068  RH  040%=      5-min Rain = 0
KVP1 250001Z 30004KT 21/08 A2987 RMK A01 T02080075  RH  042%=      5-min Rain = 0
KVP1 250002Z 30006KT 21/07 A2987 RMK A01 T02080070  RH  041%=      5-min Rain = 0
KVP1 250003Z 29007KT 21/07 A2987 RMK A01 T02090074  RH  042%=      5-min Rain = 0
KVP1 250004Z 30007KT 21/07 A2987 RMK A01 T02090070  RH  041%=      5-min Rain = 0
KVP1 250005Z 31005KT 21/07 A2987 RMK A01 T02090074  RH  042%=      5-min Rain = 0
KVP1 250006Z 32005KT 21/07 A2987 RMK A01 T02080071  RH  041%=      5-min Rain = 0
KVP1 250007Z 31007KT 21/07 A2987 RMK A01 T02080071  RH  041%=      5-min Rain = 0
KVP1 250008Z 31007KT 21/07 A2987 RMK A01 T02080071  RH  041%=      5-min Rain = 0
KVP1 250009Z 30008KT 21/07 A2987 RMK A01 T02080070  RH  041%=      5-min Rain = 0
KVP1 250010Z 30008KT 21/07 A2987 RMK A01 T02080071  RH  041%=      5-min Rain = 0
KVP1 250011Z 30007KT 21/07 A2987 RMK A01 T02070070  RH  041%=      5-min Rain = 0
KVP1 250012Z 30005KT 21/07 A2987 RMK A01 T02070072  RH  042%=      5-min Rain = 0
KVP1 250013Z 31005KT 21/07 A2987 RMK A01 T02060070  RH  041%=      5-min Rain = 0
KVP1 250014Z 29006KT 21/07 A2987 RMK A01 T02060071  RH  042%=      5-min Rain = 0
KVP1 250015Z 29006KT 21/07 A2987 RMK A01 T02060067  RH  041%=      5-min Rain = 0
KVP1 250016Z 31006KT 21/07 A2987 RMK A01 T02060071  RH  042%=      5-min Rain = 0
KVP1 250017Z 31005KT 21/07 A2987 RMK A01 T02060073  RH  042%=      5-min Rain = 0
KVP1 250018Z 32005KT 21/08 A2987 RMK A01 T02060076  RH  043%=      5-min Rain = 0
KVP1 250019Z 29007KT 21/07 A2987 RMK A01 T02060074  RH  042%=      5-min Rain = 0
KVP1 250020Z 29007KT 21/07 A2987 RMK A01 T02060072  RH  042%=      5-min Rain = 0
KVP1 250021Z 30007KT 21/07 A2987 RMK A01 T02050071  RH  042%=      5-min Rain = 0
KVP1 250022Z 31009KT 21/07 A2987 RMK A01 T02050072  RH  042%=      5-min Rain = 0
KVP1 250023Z 31007KT 20/07 A2987 RMK A01 T02040072  RH  042%=      5-min Rain = 0
KVP1 250024Z 31006KT 20/07 A2987 RMK A01 T02040072  RH  042%=      5-min Rain = 0
KVP1 250025Z 31004KT 20/07 A2987 RMK A01 T02040074  RH  043%=      5-min Rain = 0
KVP1 250026Z 31005KT 20/07 A2987 RMK A01 T02040073  RH  043%=      5-min Rain = 0
KVP1 250027Z 32006KT 20/08 A2987 RMK A01 T02040077  RH  044%=      5-min Rain = 0
KVP1 250028Z 32005KT 20/08 A2987 RMK A01 T02040077  RH  044%=      5-min Rain = 0
KVP1 250029Z 31005KT 20/08 A2987 RMK A01 T02030075  RH  043%=      5-min Rain = 0
KVP1 250030Z 31005KT 20/08 A2987 RMK A01 T02030079  RH  045%=      5-min Rain = 0
KVP1 250031Z 31006KT 20/08 A2987 RMK A01 T02020081  RH  046%=      5-min Rain = 0
KVP1 250032Z 30006KT 20/08 A2987 RMK A01 T02010079  RH  045%=      5-min Rain = 0
KVP1 250033Z 30007KT 20/08 A2987 RMK A01 T02000080  RH  046%=      5-min Rain = 0
KVP1 250034Z 30007KT 20/08 A2987 RMK A01 T02000081  RH  046%=      5-min Rain = 0
KVP1 250035Z 30007KT 20/08 A2987 RMK A01 T02000080  RH  046%=      5-min Rain = 0
KVP1 250036Z 31009KT 20/08 A2987 RMK A01 T01990082  RH  047%=      5-min Rain = 0
KVP1 250037Z 31009KT 20/08 A2987 RMK A01 T01980080  RH  046%=      5-min Rain = 0
KVP1 250038Z 32008KT 20/08 A2987 RMK A01 T01980081  RH  047%=      5-min Rain = 0
KVP1 250039Z 32008KT 20/08 A2987 RMK A01 T01970082  RH  047%=      5-min Rain = 0
KVP1 250040Z 32008KT 20/08 A2987 RMK A01 T01960081  RH  047%=      5-min Rain = 0
KVP1 250041Z 32007KT 20/08 A2987 RMK A01 T01960083  RH  048%=      5-min Rain = 0
KVP1 250042Z 32007KT 20/09 A2987 RMK A01 T01950086  RH  049%=      5-min Rain = 0
KVP1 250043Z 32007KT 19/09 A2987 RMK A01 T01940086  RH  049%=      5-min Rain = 0
KVP1 250044Z 32007KT 19/09 A2987 RMK A01 T01940088  RH  050%=      5-min Rain = 0
KVP1 250045Z 32007KT 19/09 A2987 RMK A01 T01930088  RH  050%=      5-min Rain = 0
KVP1 250046Z 32007KT 19/09 A2987 RMK A01 T01930088  RH  051%=      5-min Rain = 0
KVP1 250047Z 32007KT 19/09 A2987 RMK A01 T01920089  RH  051%=      5-min Rain = 0
KVP1 250048Z 32006KT 19/09 A2987 RMK A01 T01920090  RH  052%=      5-min Rain = 0
KVP1 250049Z 32007KT 19/09 A2987 RMK A01 T01910091  RH  052%=      5-min Rain = 0
KVP1 250050Z 32007KT 19/09 A2987 RMK A01 T01910091  RH  052%=      5-min Rain = 0
KVP1 250051Z 32007KT 19/09 A2987 RMK A01 T01900091  RH  053%=      5-min Rain = 0
KVP1 250052Z 32006KT 19/09 A2987 RMK A01 T01900092  RH  053%=      5-min Rain = 0
KVP1 250053Z 32007KT 19/09 A2987 RMK A01 T01890091  RH  053%=      5-min Rain = 0
KVP1 250054Z 32007KT 19/09 A2987 RMK A01 T01880090  RH  053%=      5-min Rain = 0
KVP1 250055Z 32006KT 19/09 A2987 RMK A01 T01870090  RH  053%=      5-min Rain = 0
KVP1 250056Z 32006KT 19/09 A2987 RMK A01 T01860089  RH  053%=      5-min Rain = 0
KVP1 250057Z 32006KT 19/09 A2987 RMK A01 T01850090  RH  054%=      5-min Rain = 0
KVP1 250058Z 32006KT 18/09 A2987 RMK A01 T01840091  RH  054%=      5-min Rain = 0
KVP1 250059Z 32006KT 18/09 A2987 RMK A01 T01830091  RH  055%=      5-min Rain = 0
KVP1 250100Z 32006KT 18/09 A2987 RMK A01 T01830091  RH  055%=      5-min Rain = 0
KVP1 250101Z 32006KT 18/09 A2987 RMK A01 T01820091  RH  055%=      5-min Rain = 0
KVP1 250102Z 32005KT 18/09 A2987 RMK A01 T01810093  RH  056%=      5-min Rain = 0
KVP1 250103Z 32005KT 18/09 A2987 RMK A01 T01800093  RH  057%=      5-min Rain = 0
KVP1 250104Z 32005KT 18/09 A2987 RMK A01 T01790094  RH  057%=      5-min Rain = 0
KVP1 250105Z 32006KT 18/09 A2987 RMK A01 T01780094  RH  058%=      5-min Rain = 0
KVP1 250106Z 32006KT 18/10 A2987 RMK A01 T01770095  RH  059%=      5-min Rain = 0
KVP1 250107Z 32006KT 18/10 A2987 RMK A01 T01760096  RH  059%=      5-min Rain = 0
KVP1 250108Z 31006KT 18/10 A2987 RMK A01 T01750096  RH  060%=      5-min Rain = 0
KVP1 250109Z 31006KT 17/10 A2987 RMK A01 T01730096  RH  060%=      5-min Rain = 0
KVP1 250110Z 31006KT 17/10 A2987 RMK A01 T01720097  RH  061%=      5-min Rain = 0
KVP1 250111Z 31007KT 17/10 A2987 RMK A01 T01710097  RH  062%=      5-min Rain = 0
KVP1 250112Z 31007KT 17/10 A2987 RMK A01 T01700097  RH  062%=      5-min Rain = 0
KVP1 250113Z 32007KT 17/10 A2987 RMK A01 T01680097  RH  063%=      5-min Rain = 0
KVP1 250114Z 32007KT 17/10 A2987 RMK A01 T01670096  RH  063%=      5-min Rain = 0
KVP1 250115Z 32007KT 17/10 A2987 RMK A01 T01660096  RH  063%=      5-min Rain = 0
KVP1 250116Z 32006KT 17/10 A2987 RMK A01 T01650095  RH  063%=      5-min Rain = 0
KVP1 250117Z 32006KT 16/10 A2987 RMK A01 T01640095  RH  064%=      5-min Rain = 0
KVP1 250118Z 32006KT 16/10 A2987 RMK A01 T01630098  RH  065%=      5-min Rain = 0
KVP1 250119Z 31007KT 16/10 A2987 RMK A01 T01620099  RH  066%=      5-min Rain = 0
KVP1 250120Z 31006KT 16/10 A2987 RMK A01 T01610098  RH  066%=      5-min Rain = 0
KVP1 250121Z 31006KT 16/10 A2987 RMK A01 T01610097  RH  066%=      5-min Rain = 0
KVP1 250122Z 31006KT 16/10 A2987 RMK A01 T01600096  RH  066%=      5-min Rain = 0
KVP1 250123Z 31006KT 16/10 A2987 RMK A01 T01600095  RH  066%=      5-min Rain = 0
KVP1 250124Z 31006KT 16/10 A2987 RMK A01 T01590095  RH  066%=      5-min Rain = 0
KVP1 250125Z 31006KT 16/09 A2987 RMK A01 T01580093  RH  065%=      5-min Rain = 0
KVP1 250126Z 31006KT 16/09 A2987 RMK A01 T01580092  RH  065%=      5-min Rain = 0
KVP1 250127Z 31006KT 16/09 A2987 RMK A01 T01570092  RH  065%=      5-min Rain = 0
KVP1 250128Z 31006KT 16/09 A2987 RMK A01 T01550093  RH  066%=      5-min Rain = 0
KVP1 250129Z 31006KT 15/09 A2987 RMK A01 T01530093  RH  067%=      5-min Rain = 0
KVP1 250130Z 31005KT 15/09 A2987 RMK A01 T01520093  RH  068%=      5-min Rain = 0
KVP1 250131Z 31006KT 15/09 A2987 RMK A01 T01510093  RH  068%=      5-min Rain = 0
KVP1 250132Z 31006KT 15/09 A2987 RMK A01 T01490093  RH  069%=      5-min Rain = 0
KVP1 250133Z 31006KT 15/09 A2987 RMK A01 T01490092  RH  069%=      5-min Rain = 0
KVP1 250134Z 31005KT 15/09 A2987 RMK A01 T01490093  RH  069%=      5-min Rain = 0
KVP1 250135Z 31005KT 15/10 A2987 RMK A01 T01480098  RH  072%=      5-min Rain = 0
KVP1 250136Z 31005KT 15/10 A2987 RMK A01 T01470098  RH  072%=      5-min Rain = 0
KVP1 250137Z 31005KT 15/10 A2987 RMK A01 T01470100  RH  073%=      5-min Rain = 0
KVP1 250138Z 31006KT 15/10 A2988 RMK A01 T01460099  RH  073%=      5-min Rain = 0
KVP1 250139Z 31006KT 15/10 A2988 RMK A01 T01460096  RH  072%=      5-min Rain = 0
KVP1 250140Z 31007KT 15/10 A2988 RMK A01 T01470096  RH  071%=      5-min Rain = 0
KVP1 250141Z 31007KT 15/09 A2988 RMK A01 T01470094  RH  071%=      5-min Rain = 0
KVP1 250142Z 31007KT 15/09 A2988 RMK A01 T01470094  RH  070%=      5-min Rain = 0
KVP1 250143Z 30006KT 15/09 A2988 RMK A01 T01450094  RH  071%=      5-min Rain = 0
KVP1 250144Z 30006KT 14/10 A2988 RMK A01 T01430096  RH  073%=      5-min Rain = 0
KVP1 250145Z 30007KT 14/10 A2988 RMK A01 T01420098  RH  075%=      5-min Rain = 0
KVP1 250146Z 31007KT 14/10 A2988 RMK A01 T01420097  RH  075%=      5-min Rain = 0
KVP1 250147Z 31008KT 14/10 A2988 RMK A01 T01410095  RH  074%=      5-min Rain = 0
KVP1 250148Z 30008KT 14/09 A2988 RMK A01 T01410094  RH  073%=      5-min Rain = 0
KVP1 250149Z 30008KT 14/09 A2988 RMK A01 T01400093  RH  073%=      5-min Rain = 0
KVP1 250150Z 30008KT 14/09 A2988 RMK A01 T01390092  RH  074%=      5-min Rain = 0
KVP1 250151Z 30008KT 14/09 A2988 RMK A01 T01370092  RH  074%=      5-min Rain = 0
KVP1 250152Z 31008KT 14/09 A2988 RMK A01 T01360091  RH  074%=      5-min Rain = 0
KVP1 250153Z 30008KT 13/09 A2988 RMK A01 T01340090  RH  074%=      5-min Rain = 0
KVP1 250154Z 31008KT 13/09 A2988 RMK A01 T01330089  RH  074%=      5-min Rain = 0
KVP1 250155Z 31008KT 13/09 A2988 RMK A01 T01320089  RH  075%=      5-min Rain = 0
KVP1 250156Z 30008KT 13/09 A2988 RMK A01 T01320090  RH  076%=      5-min Rain = 0
KVP1 250157Z 31008KT 13/09 A2988 RMK A01 T01320091  RH  076%=      5-min Rain = 0
KVP1 250158Z 31007KT 13/09 A2988 RMK A01 T01310092  RH  077%=      5-min Rain = 0
KVP1 250159Z 31007KT 13/09 A2988 RMK A01 T01310092  RH  077%=      5-min Rain = 0
KVP1 250200Z 30007KT 13/09 A2988 RMK A01 T01300093  RH  078%=      5-min Rain = 0
KVP1 250201Z 31007KT 13/09 A2988 RMK A01 T01300093  RH  078%=      5-min Rain = 0
KVP1 250202Z 31007KT 13/09 A2988 RMK A01 T01300094  RH  079%=      5-min Rain = 0
KVP1 250203Z 31006KT 13/09 A2988 RMK A01 T01300094  RH  079%=      5-min Rain = 0
KVP1 250204Z 31006KT 13/09 A2988 RMK A01 T01300094  RH  079%=      5-min Rain = 0
KVP1 250205Z 31008KT 13/09 A2988 RMK A01 T01290094  RH  079%=      5-min Rain = 0
KVP1 250206Z 31008KT 13/09 A2988 RMK A01 T01300093  RH  078%=      5-min Rain = 0
KVP1 250207Z 31008KT 13/09 A2988 RMK A01 T01300092  RH  077%=      5-min Rain = 0
KVP1 250208Z 31008KT 13/09 A2988 RMK A01 T01300091  RH  077%=      5-min Rain = 0
KVP1 250209Z 31007KT 13/09 A2988 RMK A01 T01290090  RH  077%=      5-min Rain = 0
KVP1 250210Z 31007KT 13/09 A2988 RMK A01 T01280090  RH  078%=      5-min Rain = 0
KVP1 250211Z 31007KT 13/09 A2988 RMK A01 T01270090  RH  078%=      5-min Rain = 0
KVP1 250212Z 32006KT 13/09 A2988 RMK A01 T01270091  RH  079%=      5-min Rain = 0
KVP1 250213Z 32006KT 13/09 A2988 RMK A01 T01260093  RH  080%=      5-min Rain = 0
KVP1 250214Z 32007KT 13/09 A2988 RMK A01 T01260094  RH  081%=      5-min Rain = 0
KVP1 250215Z 32007KT 13/09 A2988 RMK A01 T01260094  RH  081%=      5-min Rain = 0
KVP1 250216Z 32007KT 13/09 A2988 RMK A01 T01250093  RH  081%=      5-min Rain = 0
KVP1 250217Z 32007KT 12/09 A2989 RMK A01 T01240094  RH  082%=      5-min Rain = 0
KVP1 250218Z 32006KT 12/09 A2989 RMK A01 T01240094  RH  082%=      5-min Rain = 0
KVP1 250219Z 02005KT 12/09 A2989 RMK A01 T01230093  RH  082%=      5-min Rain = 0
KVP1 250220Z 03005KT 12/09 A2989 RMK A01 T01230091  RH  080%=      5-min Rain = 0
KVP1 250221Z 35005KT 12/09 A2989 RMK A01 T01240090  RH  080%=      5-min Rain = 0
KVP1 250222Z 01003KT 12/09 A2989 RMK A01 T01240090  RH  079%=      5-min Rain = 0
KVP1 250223Z 35003KT 13/09 A2989 RMK A01 T01250089  RH  078%=      5-min Rain = 0
KVP1 250224Z 00003KT 13/09 A2989 RMK A01 T01250089  RH  078%=      5-min Rain = 0
KVP1 250225Z 35003KT 12/09 A2989 RMK A01 T01240088  RH  078%=      5-min Rain = 0
KVP1 250226Z 00002KT 12/09 A2989 RMK A01 T01240088  RH  079%=      5-min Rain = 0
KVP1 250227Z 03004KT 12/09 A2989 RMK A01 T01230088  RH  079%=      5-min Rain = 0
KVP1 250228Z 00004KT 12/09 A2989 RMK A01 T01230087  RH  079%=      5-min Rain = 0
KVP1 250229Z 34004KT 12/09 A2989 RMK A01 T01230086  RH  078%=      5-min Rain = 0
KVP1 250230Z 35003KT 12/09 A2989 RMK A01 T01230086  RH  078%=      5-min Rain = 0
KVP1 250231Z 36003KT 12/09 A2989 RMK A01 T01230085  RH  077%=      5-min Rain = 0
KVP1 250232Z 00003KT 12/09 A2989 RMK A01 T01240085  RH  077%=      5-min Rain = 0
KVP1 250233Z 36002KT 12/09 A2989 RMK A01 T01240086  RH  077%=      5-min Rain = 0
KVP1 250234Z 36003KT 12/08 A2989 RMK A01 T01240084  RH  077%=      5-min Rain = 0
KVP1 250235Z 35003KT 12/08 A2989 RMK A01 T01230083  RH  077%=      5-min Rain = 0
KVP1 250236Z 35003KT 12/08 A2989 RMK A01 T01240084  RH  076%=      5-min Rain = 0
KVP1 250237Z 36002KT 13/08 A2989 RMK A01 T01250084  RH  076%=      5-min Rain = 0
KVP1 250238Z 04003KT 13/08 A2989 RMK A01 T01250084  RH  076%=      5-min Rain = 0
KVP1 250239Z 02004KT 12/08 A2989 RMK A01 T01240083  RH  076%=      5-min Rain = 0
KVP1 250240Z 00004KT 12/08 A2989 RMK A01 T01240084  RH  077%=      5-min Rain = 0
KVP1 250241Z 01004KT 13/09 A2989 RMK A01 T01260085  RH  076%=      5-min Rain = 0
KVP1 250242Z 02005KT 13/09 A2989 RMK A01 T01260086  RH  076%=      5-min Rain = 0
KVP1 250243Z 00004KT 13/09 A2989 RMK A01 T01260086  RH  076%=      5-min Rain = 0
KVP1 250244Z 00004KT 13/09 A2989 RMK A01 T01280086  RH  076%=      5-min Rain = 0
KVP1 250245Z 36004KT 13/09 A2989 RMK A01 T01290086  RH  075%=      5-min Rain = 0
KVP1 250246Z 35004KT 13/08 A2989 RMK A01 T01300084  RH  074%=      5-min Rain = 0
KVP1 250247Z 03004KT 13/08 A2989 RMK A01 T01300084  RH  073%=      5-min Rain = 0
KVP1 250248Z 04005KT 13/09 A2989 RMK A01 T01300085  RH  074%=      5-min Rain = 0
KVP1 250249Z 03006KT 13/08 A2989 RMK A01 T01280084  RH  075%=      5-min Rain = 0
KVP1 250250Z 03006KT 13/08 A2989 RMK A01 T01280083  RH  074%=      5-min Rain = 0
KVP1 250251Z 03006KT 13/08 A2989 RMK A01 T01310083  RH  073%=      5-min Rain = 0
KVP1 250252Z 03005KT 13/08 A2989 RMK A01 T01320083  RH  072%=      5-min Rain = 0
KVP1 250253Z 03005KT 13/08 A2989 RMK A01 T01330083  RH  072%=      5-min Rain = 0
KVP1 250254Z 03005KT 13/08 A2989 RMK A01 T01330083  RH  072%=      5-min Rain = 0
KVP1 250255Z 03005KT 13/08 A2989 RMK A01 T01340083  RH  071%=      5-min Rain = 0
KVP1 250256Z 02005KT 14/08 A2989 RMK A01 T01350083  RH  070%=      5-min Rain = 0
KVP1 250257Z 02005KT 14/08 A2989 RMK A01 T01360082  RH  070%=      5-min Rain = 0
KVP1 250258Z 02004KT 14/08 A2989 RMK A01 T01370082  RH  069%=      5-min Rain = 0
KVP1 250259Z 02004KT 14/08 A2989 RMK A01 T01370082  RH  069%=      5-min Rain = 0
KVP1 250300Z 02004KT 14/08 A2989 RMK A01 T01380081  RH  069%=      5-min Rain = 0
KVP1 250301Z 02004KT 14/08 A2989 RMK A01 T01380081  RH  068%=      5-min Rain = 0
KVP1 250302Z 02004KT 14/08 A2989 RMK A01 T01380081  RH  068%=      5-min Rain = 0
KVP1 250303Z 02004KT 14/08 A2989 RMK A01 T01380081  RH  068%=      5-min Rain = 0
KVP1 250304Z 02005KT 14/08 A2989 RMK A01 T01380081  RH  068%=      5-min Rain = 0
KVP1 250305Z 02005KT 14/08 A2989 RMK A01 T01380080  RH  068%=      5-min Rain = 0
KVP1 250306Z 02004KT 14/08 A2989 RMK A01 T01380080  RH  068%=      5-min Rain = 0
KVP1 250307Z 01004KT 14/08 A2989 RMK A01 T01390080  RH  068%=      5-min Rain = 0
KVP1 250308Z 01004KT 14/08 A2989 RMK A01 T01390080  RH  068%=      5-min Rain = 0
KVP1 250309Z 02004KT 14/08 A2989 RMK A01 T01390081  RH  068%=      5-min Rain = 0
KVP1 250310Z 02004KT 14/08 A2989 RMK A01 T01390081  RH  068%=      5-min Rain = 0
KVP1 250311Z 02004KT 14/08 A2989 RMK A01 T01400081  RH  068%=      5-min Rain = 0
KVP1 250312Z 02005KT 14/08 A2989 RMK A01 T01400082  RH  068%=      5-min Rain = 0
KVP1 250313Z 02005KT 14/08 A2989 RMK A01 T01410082  RH  068%=      5-min Rain = 0
KVP1 250314Z 02004KT 14/08 A2989 RMK A01 T01410082  RH  068%=      5-min Rain = 0
KVP1 250315Z 01004KT 14/08 A2989 RMK A01 T01410082  RH  068%=      5-min Rain = 0
KVP1 250316Z 01004KT 14/08 A2989 RMK A01 T01410082  RH  067%=      5-min Rain = 0
KVP1 250317Z 01004KT 14/08 A2989 RMK A01 T01420082  RH  067%=      5-min Rain = 0
KVP1 250318Z 02004KT 14/08 A2989 RMK A01 T01420082  RH  067%=      5-min Rain = 0
KVP1 250319Z 02004KT 14/08 A2989 RMK A01 T01430082  RH  067%=      5-min Rain = 0
KVP1 250320Z 02004KT 14/08 A2989 RMK A01 T01430081  RH  066%=      5-min Rain = 0
KVP1 250321Z 02004KT 14/08 A2989 RMK A01 T01430081  RH  066%=      5-min Rain = 0
KVP1 250322Z 02005KT 14/08 A2989 RMK A01 T01430080  RH  066%=      5-min Rain = 0
KVP1 250323Z 02005KT 14/08 A2989 RMK A01 T01430080  RH  066%=      5-min Rain = 0
KVP1 250324Z 02005KT 14/08 A2989 RMK A01 T01430079  RH  065%=      5-min Rain = 0
KVP1 250325Z 02004KT 14/08 A2989 RMK A01 T01440079  RH  065%=      5-min Rain = 0
KVP1 250326Z 03004KT 14/08 A2989 RMK A01 T01440079  RH  065%=      5-min Rain = 0
KVP1 250327Z 03004KT 14/08 A2989 RMK A01 T01440080  RH  065%=      5-min Rain = 0
KVP1 250328Z 05004KT 14/08 A2989 RMK A01 T01440080  RH  065%=      5-min Rain = 0
KVP1 250329Z 06004KT 14/08 A299 RMK A01 T01420079  RH  066%=      5-min Rain = 0
KVP1 250330Z 10004KT 14/08 A299 RMK A01 T01400080  RH  067%=      5-min Rain = 0
KVP1 250331Z 10005KT 13/08 A299 RMK A01 T01310080  RH  071%=      5-min Rain = 0
KVP1 250332Z 09003KT 12/08 A299 RMK A01 T01230080  RH  075%=      5-min Rain = 0
KVP1 250333Z 09002KT 12/08 A299 RMK A01 T01200081  RH  077%=      5-min Rain = 0
KVP1 250334Z 09002KT 12/08 A299 RMK A01 T01190081  RH  078%=      5-min Rain = 0
KVP1 250335Z 09002KT 12/08 A299 RMK A01 T01190083  RH  079%=      5-min Rain = 0
KVP1 250336Z 10003KT 12/08 A299 RMK A01 T01180084  RH  079%=      5-min Rain = 0
KVP1 250337Z 10002KT 12/08 A299 RMK A01 T01180084  RH  080%=      5-min Rain = 0
KVP1 250338Z 09002KT 12/08 A299 RMK A01 T01180084  RH  080%=      5-min Rain = 0
KVP1 250339Z 08001KT 12/09 A2989 RMK A01 T01180085  RH  080%=      5-min Rain = 0
KVP1 250340Z 09001KT 12/09 A299 RMK A01 T01190085  RH  080%=      5-min Rain = 0
KVP1 250341Z 10001KT 12/09 A299 RMK A01 T01190086  RH  080%=      5-min Rain = 0
KVP1 250342Z 12002KT 12/09 A299 RMK A01 T01190086  RH  080%=      5-min Rain = 0
KVP1 250343Z 14003KT 12/09 A299 RMK A01 T01190085  RH  080%=      5-min Rain = 0
KVP1 250344Z 16003KT 12/08 A299 RMK A01 T01180084  RH  080%=      5-min Rain = 0
KVP1 250345Z 16002KT 12/09 A299 RMK A01 T01160085  RH  081%=      5-min Rain = 0
KVP1 250346Z 18002KT 12/09 A299 RMK A01 T01150086  RH  082%=      5-min Rain = 0
KVP1 250347Z 19002KT 11/09 A299 RMK A01 T01140085  RH  082%=      5-min Rain = 0
KVP1 250348Z 19003KT 11/08 A299 RMK A01 T01130084  RH  082%=      5-min Rain = 0
KVP1 250349Z 20003KT 11/08 A299 RMK A01 T01130084  RH  083%=      5-min Rain = 0
KVP1 250350Z 21003KT 11/08 A299 RMK A01 T01120083  RH  082%=      5-min Rain = 0
KVP1 250351Z 21003KT 11/08 A299 RMK A01 T01080077  RH  081%=      5-min Rain = 0
KVP1 250352Z 21003KT 11/08 A299 RMK A01 T01050076  RH  082%=      5-min Rain = 0
KVP1 250353Z 20002KT 10/08 A299 RMK A01 T01020076  RH  084%=      5-min Rain = 0
KVP1 250354Z 17002KT 10/08 A299 RMK A01 T01010075  RH  084%=      5-min Rain = 0
KVP1 250355Z 16002KT 10/08 A299 RMK A01 T00980077  RH  087%=      5-min Rain = 0
KVP1 250356Z 20003KT 10/08 A299 RMK A01 T00990081  RH  088%=      5-min Rain = 0
KVP1 250357Z 20003KT 10/08 A299 RMK A01 T01010081  RH  087%=      5-min Rain = 0
KVP1 250358Z 20003KT 10/08 A299 RMK A01 T01010081  RH  087%=      5-min Rain = 0
KVP1 250359Z 20003KT 10/08 A299 RMK A01 T01010081  RH  087%=      5-min Rain = 0
KVP1 250400Z 21003KT 10/08 A299 RMK A01 T01020080  RH  086%=      5-min Rain = 0
KVP1 250401Z 22003KT 10/08 A299 RMK A01 T01020080  RH  086%=      5-min Rain = 0
KVP1 250402Z 24003KT 10/08 A299 RMK A01 T01020079  RH  085%=      5-min Rain = 0
KVP1 250403Z 24003KT 10/08 A299 RMK A01 T01010078  RH  086%=      5-min Rain = 0
KVP1 250404Z 23003KT 10/08 A299 RMK A01 T01020081  RH  087%=      5-min Rain = 0
KVP1 250405Z 23003KT 10/08 A299 RMK A01 T01040082  RH  086%=      5-min Rain = 0
KVP1 250406Z 23003KT 11/08 A299 RMK A01 T01060082  RH  085%=      5-min Rain = 0
KVP1 250407Z 24003KT 11/08 A299 RMK A01 T01080082  RH  084%=      5-min Rain = 0
KVP1 250408Z 25004KT 11/08 A299 RMK A01 T01080082  RH  084%=      5-min Rain = 0
KVP1 250409Z 26004KT 11/08 A299 RMK A01 T01050081  RH  085%=      5-min Rain = 0
KVP1 250410Z 25004KT 10/08 A299 RMK A01 T01030081  RH  086%=      5-min Rain = 0
KVP1 250411Z 25004KT 10/08 A299 RMK A01 T01030083  RH  087%=      5-min Rain = 0
KVP1 250412Z 25004KT 10/08 A299 RMK A01 T01040082  RH  086%=      5-min Rain = 0
KVP1 250413Z 26004KT 10/08 A299 RMK A01 T01040081  RH  086%=      5-min Rain = 0
KVP1 250414Z 27004KT 10/08 A299 RMK A01 T01030083  RH  087%=      5-min Rain = 0
KVP1 250415Z 27004KT 10/08 A299 RMK A01 T01020083  RH  088%=      5-min Rain = 0
KVP1 250416Z 27005KT 10/08 A299 RMK A01 T01020083  RH  088%=      5-min Rain = 0
KVP1 250417Z 26005KT 10/08 A299 RMK A01 T01020083  RH  088%=      5-min Rain = 0
KVP1 250418Z 26005KT 10/08 A299 RMK A01 T01020081  RH  087%=      5-min Rain = 0
KVP1 250419Z 26005KT 10/08 A299 RMK A01 T01000080  RH  087%=      5-min Rain = 0
KVP1 250420Z 26005KT 10/08 A299 RMK A01 T00990079  RH  088%=      5-min Rain = 0
KVP1 250421Z 26005KT 10/08 A299 RMK A01 T00990079  RH  087%=      5-min Rain = 0
KVP1 250422Z 26006KT 10/08 A299 RMK A01 T00990078  RH  087%=      5-min Rain = 0
KVP1 250423Z 26006KT 10/08 A299 RMK A01 T00990078  RH  087%=      5-min Rain = 0
KVP1 250424Z 26005KT 10/08 A299 RMK A01 T00990079  RH  088%=      5-min Rain = 0
KVP1 250425Z 26005KT 10/08 A299 RMK A01 T00990078  RH  087%=      5-min Rain = 0
KVP1 250426Z 26005KT 10/08 A2989 RMK A01 T00980078  RH  087%=      5-min Rain = 0
KVP1 250427Z 26005KT 10/08 A2989 RMK A01 T00970077  RH  087%=      5-min Rain = 0
KVP1 250428Z 27004KT 10/08 A2989 RMK A01 T00970077  RH  087%=      5-min Rain = 0
KVP1 250429Z 27004KT 10/08 A2989 RMK A01 T00960077  RH  088%=      5-min Rain = 0
KVP1 250430Z 27004KT 10/08 A2989 RMK A01 T00960078  RH  089%=      5-min Rain = 0
KVP1 250431Z 27004KT 10/08 A2989 RMK A01 T00960079  RH  089%=      5-min Rain = 0
KVP1 250432Z 27004KT 10/08 A2989 RMK A01 T00980080  RH  089%=      5-min Rain = 0
KVP1 250433Z 28004KT 10/08 A2989 RMK A01 T00990081  RH  089%=      5-min Rain = 0
KVP1 250434Z 28004KT 10/08 A2989 RMK A01 T01000082  RH  088%=      5-min Rain = 0
KVP1 250435Z 28004KT 10/08 A2989 RMK A01 T01020082  RH  088%=      5-min Rain = 0
KVP1 250436Z 28004KT 10/08 A2989 RMK A01 T01030082  RH  087%=      5-min Rain = 0
KVP1 250437Z 28004KT 11/08 A2989 RMK A01 T01050082  RH  086%=      5-min Rain = 0
KVP1 250438Z 28004KT 11/08 A2989 RMK A01 T01070082  RH  085%=      5-min Rain = 0
KVP1 250439Z 28004KT 11/08 A2989 RMK A01 T01070081  RH  084%=      5-min Rain = 0
KVP1 250440Z 28004KT 11/08 A2989 RMK A01 T01070081  RH  084%=      5-min Rain = 0
KVP1 250441Z 28005KT 11/08 A2989 RMK A01 T01060080  RH  084%=      5-min Rain = 0
KVP1 250442Z 28005KT 11/08 A2989 RMK A01 T01060081  RH  085%=      5-min Rain = 0
KVP1 250443Z 28005KT 11/08 A2989 RMK A01 T01070081  RH  084%=      5-min Rain = 0
KVP1 250444Z 28004KT 11/08 A2989 RMK A01 T01070081  RH  084%=      5-min Rain = 0
KVP1 250445Z 28004KT 11/08 A2989 RMK A01 T01080081  RH  084%=      5-min Rain = 0
KVP1 250446Z 28004KT 11/08 A2989 RMK A01 T01070080  RH  083%=      5-min Rain = 0
KVP1 250447Z 28004KT 11/08 A2989 RMK A01 T01070080  RH  084%=      5-min Rain = 0
KVP1 250448Z 28004KT 11/08 A2989 RMK A01 T01060080  RH  084%=      5-min Rain = 0
KVP1 250449Z 28004KT 11/08 A2989 RMK A01 T01050080  RH  085%=      5-min Rain = 0
KVP1 250450Z 28003KT 10/08 A2989 RMK A01 T01030079  RH  085%=      5-min Rain = 0
KVP1 250451Z 28004KT 10/08 A2989 RMK A01 T01030081  RH  086%=      5-min Rain = 0
KVP1 250452Z 27004KT 10/08 A2989 RMK A01 T01040081  RH  086%=      5-min Rain = 0
KVP1 250453Z 27004KT 10/08 A2989 RMK A01 T01030079  RH  085%=      5-min Rain = 0
KVP1 250454Z 27004KT 10/08 A2989 RMK A01 T01020079  RH  086%=      5-min Rain = 0
KVP1 250455Z 27004KT 10/08 A2989 RMK A01 T01020080  RH  086%=      5-min Rain = 0
KVP1 250456Z 27004KT 10/08 A2989 RMK A01 T01030081  RH  086%=      5-min Rain = 0
KVP1 250457Z 27004KT 10/08 A2989 RMK A01 T01040080  RH  085%=      5-min Rain = 0
KVP1 250458Z 27004KT 10/08 A2989 RMK A01 T01040079  RH  085%=      5-min Rain = 0
KVP1 250459Z 26004KT 10/08 A2989 RMK A01 T01040080  RH  085%=      5-min Rain = 0

Page generated in 0.0319 seconds.